<?xml version="1.0" encoding="UTF-8" standalone="no" ?>
<gpx xmlns="http://www.topografix.com/GPX/1/1" xmlns:xsi="http://www.w3.org/2001/XMLSchema-instance" xsi:schemaLocation="http://www.topografix.com/GPX/1/1 http://www.topografix.com/GPX/1/1/gpx.xsd" version="1.1" creator="VisuGPX - https://www.visugpx.com">
  <metadata>
    <name>Plogastel-St-Germain/Le Guilly</name>
    <desc><![CDATA[Au départ du parking de la poste à Plogastel, suivre le balisage jaune, puis dans le bois, suivre le balisage bleu jusque la côte 132, traverser la route et reprendre le balisage jaune en direction de Kerluen, continuer jusqu\'au carrefour, côte 121, prendre la rte sur la gauche, à mis côte, prendre un sentier à droite dans le bois jusque la station de pompage, suivre le sentier à droite, retrouver en bas le balisage jaune, et le suivre jusqu\'au parking. ch ]]></desc>
  </metadata>
  <trk>
    <name><![CDATA[Plogastel-St-Germain/Le Guily]]></name>
    <trkseg>
      <trkpt lat="47.98284" lon="-4.27068">
        <ele>108.76623535156</ele>
        <time>2014-01-13T13:00:09Z</time>
      </trkpt>
      <trkpt lat="47.98285" lon="-4.27069">
        <ele>108.28564453125</ele>
        <time>2014-01-13T13:00:10Z</time>
      </trkpt>
      <trkpt lat="47.98286" lon="-4.27069">
        <ele>107.80505371094</ele>
        <time>2014-01-13T13:00:11Z</time>
      </trkpt>
      <trkpt lat="47.98286" lon="-4.27068">
        <ele>107.80505371094</ele>
        <time>2014-01-13T13:00:12Z</time>
      </trkpt>
      <trkpt lat="47.98289" lon="-4.27057">
        <ele>107.80505371094</ele>
        <time>2014-01-13T13:00:19Z</time>
      </trkpt>
      <trkpt lat="47.98289" lon="-4.27053">
        <ele>107.32434082031</ele>
        <time>2014-01-13T13:00:21Z</time>
      </trkpt>
      <trkpt lat="47.98299" lon="-4.27052">
        <ele>108.28564453125</ele>
        <time>2014-01-13T13:00:30Z</time>
      </trkpt>
      <trkpt lat="47.98309" lon="-4.27051">
        <ele>108.76623535156</ele>
        <time>2014-01-13T13:00:38Z</time>
      </trkpt>
      <trkpt lat="47.98317" lon="-4.27052">
        <ele>110.20825195312</ele>
        <time>2014-01-13T13:00:46Z</time>
      </trkpt>
      <trkpt lat="47.98322" lon="-4.27049">
        <ele>112.13098144531</ele>
        <time>2014-01-13T13:00:51Z</time>
      </trkpt>
      <trkpt lat="47.98328" lon="-4.27051">
        <ele>118.37939453125</ele>
        <time>2014-01-13T13:00:55Z</time>
      </trkpt>
      <trkpt lat="47.98333" lon="-4.27053">
        <ele>120.78283691406</ele>
        <time>2014-01-13T13:00:59Z</time>
      </trkpt>
      <trkpt lat="47.98338" lon="-4.27052">
        <ele>126.55065917969</ele>
        <time>2014-01-13T13:01:06Z</time>
      </trkpt>
      <trkpt lat="47.98346" lon="-4.27056">
        <ele>125.10876464844</ele>
        <time>2014-01-13T13:01:11Z</time>
      </trkpt>
      <trkpt lat="47.98357" lon="-4.27066">
        <ele>126.55065917969</ele>
        <time>2014-01-13T13:01:18Z</time>
      </trkpt>
      <trkpt lat="47.98367" lon="-4.27074">
        <ele>124.62805175781</ele>
        <time>2014-01-13T13:01:25Z</time>
      </trkpt>
      <trkpt lat="47.98373" lon="-4.2708">
        <ele>123.66674804688</ele>
        <time>2014-01-13T13:01:31Z</time>
      </trkpt>
      <trkpt lat="47.98377" lon="-4.27088">
        <ele>129.91528320312</ele>
        <time>2014-01-13T13:01:37Z</time>
      </trkpt>
      <trkpt lat="47.9838" lon="-4.27083">
        <ele>128.9541015625</ele>
        <time>2014-01-13T13:01:40Z</time>
      </trkpt>
      <trkpt lat="47.98389" lon="-4.27085">
        <ele>127.51196289062</ele>
        <time>2014-01-13T13:01:47Z</time>
      </trkpt>
      <trkpt lat="47.98399" lon="-4.27091">
        <ele>127.03137207031</ele>
        <time>2014-01-13T13:01:53Z</time>
      </trkpt>
      <trkpt lat="47.98403" lon="-4.27093">
        <ele>123.66674804688</ele>
        <time>2014-01-13T13:01:57Z</time>
      </trkpt>
      <trkpt lat="47.98411" lon="-4.27096">
        <ele>121.26354980469</ele>
        <time>2014-01-13T13:02:03Z</time>
      </trkpt>
      <trkpt lat="47.98419" lon="-4.27099">
        <ele>121.26354980469</ele>
        <time>2014-01-13T13:02:08Z</time>
      </trkpt>
      <trkpt lat="47.98424" lon="-4.27101">
        <ele>121.744140625</ele>
        <time>2014-01-13T13:02:12Z</time>
      </trkpt>
      <trkpt lat="47.98433" lon="-4.27105">
        <ele>120.30212402344</ele>
        <time>2014-01-13T13:02:19Z</time>
      </trkpt>
      <trkpt lat="47.98439" lon="-4.27108">
        <ele>116.9375</ele>
        <time>2014-01-13T13:02:24Z</time>
      </trkpt>
      <trkpt lat="47.98446" lon="-4.27114">
        <ele>115.49560546875</ele>
        <time>2014-01-13T13:02:31Z</time>
      </trkpt>
      <trkpt lat="47.98449" lon="-4.27115">
        <ele>111.65026855469</ele>
        <time>2014-01-13T13:02:36Z</time>
      </trkpt>
      <trkpt lat="47.98459" lon="-4.27118">
        <ele>108.76623535156</ele>
        <time>2014-01-13T13:02:41Z</time>
      </trkpt>
      <trkpt lat="47.9847" lon="-4.27123">
        <ele>107.80505371094</ele>
        <time>2014-01-13T13:02:47Z</time>
      </trkpt>
      <trkpt lat="47.98472" lon="-4.27124">
        <ele>107.32434082031</ele>
        <time>2014-01-13T13:02:49Z</time>
      </trkpt>
      <trkpt lat="47.98482" lon="-4.27126">
        <ele>110.68884277344</ele>
        <time>2014-01-13T13:02:55Z</time>
      </trkpt>
      <trkpt lat="47.98492" lon="-4.27129">
        <ele>113.09228515625</ele>
        <time>2014-01-13T13:03:00Z</time>
      </trkpt>
      <trkpt lat="47.98493" lon="-4.27129">
        <ele>114.05358886719</ele>
        <time>2014-01-13T13:03:01Z</time>
      </trkpt>
      <trkpt lat="47.98499" lon="-4.27132">
        <ele>115.01489257812</ele>
        <time>2014-01-13T13:03:05Z</time>
      </trkpt>
      <trkpt lat="47.98501" lon="-4.27135">
        <ele>116.9375</ele>
        <time>2014-01-13T13:03:08Z</time>
      </trkpt>
      <trkpt lat="47.9851" lon="-4.27137">
        <ele>113.57299804688</ele>
        <time>2014-01-13T13:03:15Z</time>
      </trkpt>
      <trkpt lat="47.98512" lon="-4.27139">
        <ele>112.61157226562</ele>
        <time>2014-01-13T13:03:18Z</time>
      </trkpt>
      <trkpt lat="47.98516" lon="-4.27144">
        <ele>113.09228515625</ele>
        <time>2014-01-13T13:03:22Z</time>
      </trkpt>
      <trkpt lat="47.98518" lon="-4.27148">
        <ele>113.09228515625</ele>
        <time>2014-01-13T13:03:26Z</time>
      </trkpt>
      <trkpt lat="47.9852" lon="-4.27151">
        <ele>113.09228515625</ele>
        <time>2014-01-13T13:03:29Z</time>
      </trkpt>
      <trkpt lat="47.98526" lon="-4.27156">
        <ele>114.5341796875</ele>
        <time>2014-01-13T13:03:34Z</time>
      </trkpt>
      <trkpt lat="47.98533" lon="-4.27153">
        <ele>113.57299804688</ele>
        <time>2014-01-13T13:03:39Z</time>
      </trkpt>
      <trkpt lat="47.98536" lon="-4.27149">
        <ele>112.61157226562</ele>
        <time>2014-01-13T13:03:43Z</time>
      </trkpt>
      <trkpt lat="47.98542" lon="-4.27145">
        <ele>108.76623535156</ele>
        <time>2014-01-13T13:03:48Z</time>
      </trkpt>
      <trkpt lat="47.98546" lon="-4.2714">
        <ele>107.32434082031</ele>
        <time>2014-01-13T13:03:52Z</time>
      </trkpt>
      <trkpt lat="47.98553" lon="-4.27133">
        <ele>104.4404296875</ele>
        <time>2014-01-13T13:03:58Z</time>
      </trkpt>
      <trkpt lat="47.98558" lon="-4.27127">
        <ele>102.037109375</ele>
        <time>2014-01-13T13:04:02Z</time>
      </trkpt>
      <trkpt lat="47.98563" lon="-4.27117">
        <ele>98.672485351562</ele>
        <time>2014-01-13T13:04:09Z</time>
      </trkpt>
      <trkpt lat="47.9857" lon="-4.27104">
        <ele>97.711181640625</ele>
        <time>2014-01-13T13:04:15Z</time>
      </trkpt>
      <trkpt lat="47.98572" lon="-4.27101">
        <ele>99.6337890625</ele>
        <time>2014-01-13T13:04:17Z</time>
      </trkpt>
      <trkpt lat="47.98577" lon="-4.27095">
        <ele>102.99829101562</ele>
        <time>2014-01-13T13:04:22Z</time>
      </trkpt>
      <trkpt lat="47.98579" lon="-4.27087">
        <ele>105.40173339844</ele>
        <time>2014-01-13T13:04:27Z</time>
      </trkpt>
      <trkpt lat="47.98579" lon="-4.27085">
        <ele>104.4404296875</ele>
        <time>2014-01-13T13:04:28Z</time>
      </trkpt>
      <trkpt lat="47.9858" lon="-4.27081">
        <ele>106.36303710938</ele>
        <time>2014-01-13T13:04:30Z</time>
      </trkpt>
      <trkpt lat="47.98584" lon="-4.27073">
        <ele>108.28564453125</ele>
        <time>2014-01-13T13:04:35Z</time>
      </trkpt>
      <trkpt lat="47.98584" lon="-4.27066">
        <ele>108.76623535156</ele>
        <time>2014-01-13T13:04:38Z</time>
      </trkpt>
      <trkpt lat="47.98585" lon="-4.27057">
        <ele>109.72766113281</ele>
        <time>2014-01-13T13:04:42Z</time>
      </trkpt>
      <trkpt lat="47.98585" lon="-4.27049">
        <ele>108.76623535156</ele>
        <time>2014-01-13T13:04:46Z</time>
      </trkpt>
      <trkpt lat="47.98583" lon="-4.27043">
        <ele>107.32434082031</ele>
        <time>2014-01-13T13:04:49Z</time>
      </trkpt>
      <trkpt lat="47.98587" lon="-4.27035">
        <ele>103.95971679688</ele>
        <time>2014-01-13T13:04:54Z</time>
      </trkpt>
      <trkpt lat="47.98589" lon="-4.27028">
        <ele>103.95971679688</ele>
        <time>2014-01-13T13:04:59Z</time>
      </trkpt>
      <trkpt lat="47.98592" lon="-4.27022">
        <ele>103.47900390625</ele>
        <time>2014-01-13T13:05:04Z</time>
      </trkpt>
      <trkpt lat="47.98595" lon="-4.27016">
        <ele>102.51770019531</ele>
        <time>2014-01-13T13:05:09Z</time>
      </trkpt>
      <trkpt lat="47.98598" lon="-4.27013">
        <ele>101.55639648438</ele>
        <time>2014-01-13T13:05:13Z</time>
      </trkpt>
      <trkpt lat="47.98602" lon="-4.2701">
        <ele>101.07568359375</ele>
        <time>2014-01-13T13:05:18Z</time>
      </trkpt>
      <trkpt lat="47.98604" lon="-4.27009">
        <ele>100.59509277344</ele>
        <time>2014-01-13T13:05:19Z</time>
      </trkpt>
      <trkpt lat="47.98606" lon="-4.27006">
        <ele>99.6337890625</ele>
        <time>2014-01-13T13:05:21Z</time>
      </trkpt>
      <trkpt lat="47.98609" lon="-4.26986">
        <ele>98.19189453125</ele>
        <time>2014-01-13T13:05:30Z</time>
      </trkpt>
      <trkpt lat="47.9861" lon="-4.26975">
        <ele>103.95971679688</ele>
        <time>2014-01-13T13:05:36Z</time>
      </trkpt>
      <trkpt lat="47.98612" lon="-4.26973">
        <ele>104.4404296875</ele>
        <time>2014-01-13T13:05:38Z</time>
      </trkpt>
      <trkpt lat="47.98619" lon="-4.26966">
        <ele>105.40173339844</ele>
        <time>2014-01-13T13:05:44Z</time>
      </trkpt>
      <trkpt lat="47.98622" lon="-4.26964">
        <ele>105.88244628906</ele>
        <time>2014-01-13T13:05:46Z</time>
      </trkpt>
      <trkpt lat="47.98624" lon="-4.26959">
        <ele>106.84362792969</ele>
        <time>2014-01-13T13:05:50Z</time>
      </trkpt>
      <trkpt lat="47.98628" lon="-4.26951">
        <ele>105.88244628906</ele>
        <time>2014-01-13T13:05:55Z</time>
      </trkpt>
      <trkpt lat="47.9863" lon="-4.26948">
        <ele>104.92102050781</ele>
        <time>2014-01-13T13:05:57Z</time>
      </trkpt>
      <trkpt lat="47.98632" lon="-4.26942">
        <ele>102.99829101562</ele>
        <time>2014-01-13T13:06:03Z</time>
      </trkpt>
      <trkpt lat="47.98637" lon="-4.26937">
        <ele>103.95971679688</ele>
        <time>2014-01-13T13:06:07Z</time>
      </trkpt>
      <trkpt lat="47.98638" lon="-4.26936">
        <ele>105.40173339844</ele>
        <time>2014-01-13T13:06:08Z</time>
      </trkpt>
      <trkpt lat="47.98645" lon="-4.26927">
        <ele>106.84362792969</ele>
        <time>2014-01-13T13:06:15Z</time>
      </trkpt>
      <trkpt lat="47.98649" lon="-4.26921">
        <ele>108.76623535156</ele>
        <time>2014-01-13T13:06:20Z</time>
      </trkpt>
      <trkpt lat="47.98652" lon="-4.26915">
        <ele>107.80505371094</ele>
        <time>2014-01-13T13:06:25Z</time>
      </trkpt>
      <trkpt lat="47.98655" lon="-4.26909">
        <ele>107.80505371094</ele>
        <time>2014-01-13T13:06:30Z</time>
      </trkpt>
      <trkpt lat="47.98659" lon="-4.26905">
        <ele>110.20825195312</ele>
        <time>2014-01-13T13:06:34Z</time>
      </trkpt>
      <trkpt lat="47.98659" lon="-4.26903">
        <ele>110.20825195312</ele>
        <time>2014-01-13T13:06:35Z</time>
      </trkpt>
      <trkpt lat="47.98663" lon="-4.26898">
        <ele>112.61157226562</ele>
        <time>2014-01-13T13:06:40Z</time>
      </trkpt>
      <trkpt lat="47.98666" lon="-4.26895">
        <ele>114.05358886719</ele>
        <time>2014-01-13T13:06:43Z</time>
      </trkpt>
      <trkpt lat="47.98669" lon="-4.2689">
        <ele>115.49560546875</ele>
        <time>2014-01-13T13:06:48Z</time>
      </trkpt>
      <trkpt lat="47.98675" lon="-4.26884">
        <ele>115.97619628906</ele>
        <time>2014-01-13T13:06:54Z</time>
      </trkpt>
      <trkpt lat="47.98677" lon="-4.26878">
        <ele>117.41821289062</ele>
        <time>2014-01-13T13:06:58Z</time>
      </trkpt>
      <trkpt lat="47.98681" lon="-4.26874">
        <ele>117.41821289062</ele>
        <time>2014-01-13T13:07:02Z</time>
      </trkpt>
      <trkpt lat="47.98685" lon="-4.26868">
        <ele>119.3408203125</ele>
        <time>2014-01-13T13:07:06Z</time>
      </trkpt>
      <trkpt lat="47.98689" lon="-4.26863">
        <ele>119.82141113281</ele>
        <time>2014-01-13T13:07:10Z</time>
      </trkpt>
      <trkpt lat="47.98693" lon="-4.26859">
        <ele>117.89880371094</ele>
        <time>2014-01-13T13:07:15Z</time>
      </trkpt>
      <trkpt lat="47.98694" lon="-4.26858">
        <ele>117.41821289062</ele>
        <time>2014-01-13T13:07:16Z</time>
      </trkpt>
      <trkpt lat="47.98696" lon="-4.26856">
        <ele>116.45678710938</ele>
        <time>2014-01-13T13:07:19Z</time>
      </trkpt>
      <trkpt lat="47.98698" lon="-4.26852">
        <ele>115.97619628906</ele>
        <time>2014-01-13T13:07:24Z</time>
      </trkpt>
      <trkpt lat="47.98698" lon="-4.2685">
        <ele>115.97619628906</ele>
        <time>2014-01-13T13:07:25Z</time>
      </trkpt>
      <trkpt lat="47.98701" lon="-4.26844">
        <ele>114.05358886719</ele>
        <time>2014-01-13T13:07:29Z</time>
      </trkpt>
      <trkpt lat="47.98707" lon="-4.26838">
        <ele>113.57299804688</ele>
        <time>2014-01-13T13:07:36Z</time>
      </trkpt>
      <trkpt lat="47.98715" lon="-4.26835">
        <ele>113.57299804688</ele>
        <time>2014-01-13T13:07:42Z</time>
      </trkpt>
      <trkpt lat="47.9872" lon="-4.26834">
        <ele>115.97619628906</ele>
        <time>2014-01-13T13:07:47Z</time>
      </trkpt>
      <trkpt lat="47.98728" lon="-4.26838">
        <ele>116.45678710938</ele>
        <time>2014-01-13T13:07:51Z</time>
      </trkpt>
      <trkpt lat="47.98729" lon="-4.2684">
        <ele>117.41821289062</ele>
        <time>2014-01-13T13:07:53Z</time>
      </trkpt>
      <trkpt lat="47.98734" lon="-4.26843">
        <ele>123.18615722656</ele>
        <time>2014-01-13T13:07:58Z</time>
      </trkpt>
      <trkpt lat="47.9874" lon="-4.26846">
        <ele>125.10876464844</ele>
        <time>2014-01-13T13:08:02Z</time>
      </trkpt>
      <trkpt lat="47.98747" lon="-4.26851">
        <ele>123.66674804688</ele>
        <time>2014-01-13T13:08:10Z</time>
      </trkpt>
      <trkpt lat="47.98749" lon="-4.26853">
        <ele>122.22473144531</ele>
        <time>2014-01-13T13:08:12Z</time>
      </trkpt>
      <trkpt lat="47.98752" lon="-4.26855">
        <ele>117.41821289062</ele>
        <time>2014-01-13T13:08:16Z</time>
      </trkpt>
      <trkpt lat="47.98755" lon="-4.26857">
        <ele>114.5341796875</ele>
        <time>2014-01-13T13:08:20Z</time>
      </trkpt>
      <trkpt lat="47.98763" lon="-4.2686">
        <ele>110.20825195312</ele>
        <time>2014-01-13T13:08:25Z</time>
      </trkpt>
      <trkpt lat="47.98771" lon="-4.26865">
        <ele>106.36303710938</ele>
        <time>2014-01-13T13:08:32Z</time>
      </trkpt>
      <trkpt lat="47.98775" lon="-4.26868">
        <ele>104.92102050781</ele>
        <time>2014-01-13T13:08:36Z</time>
      </trkpt>
      <trkpt lat="47.98781" lon="-4.2687">
        <ele>101.55639648438</ele>
        <time>2014-01-13T13:08:41Z</time>
      </trkpt>
      <trkpt lat="47.98785" lon="-4.26872">
        <ele>102.037109375</ele>
        <time>2014-01-13T13:08:45Z</time>
      </trkpt>
      <trkpt lat="47.98791" lon="-4.26874">
        <ele>101.55639648438</ele>
        <time>2014-01-13T13:08:51Z</time>
      </trkpt>
      <trkpt lat="47.98799" lon="-4.26875">
        <ele>101.07568359375</ele>
        <time>2014-01-13T13:08:57Z</time>
      </trkpt>
      <trkpt lat="47.98803" lon="-4.26877">
        <ele>103.47900390625</ele>
        <time>2014-01-13T13:09:01Z</time>
      </trkpt>
      <trkpt lat="47.98807" lon="-4.26879">
        <ele>106.36303710938</ele>
        <time>2014-01-13T13:09:05Z</time>
      </trkpt>
      <trkpt lat="47.98814" lon="-4.26882">
        <ele>111.16955566406</ele>
        <time>2014-01-13T13:09:11Z</time>
      </trkpt>
      <trkpt lat="47.98821" lon="-4.26884">
        <ele>113.57299804688</ele>
        <time>2014-01-13T13:09:16Z</time>
      </trkpt>
      <trkpt lat="47.98827" lon="-4.26886">
        <ele>114.05358886719</ele>
        <time>2014-01-13T13:09:23Z</time>
      </trkpt>
      <trkpt lat="47.9883" lon="-4.26888">
        <ele>114.05358886719</ele>
        <time>2014-01-13T13:09:27Z</time>
      </trkpt>
      <trkpt lat="47.98836" lon="-4.26889">
        <ele>114.5341796875</ele>
        <time>2014-01-13T13:09:31Z</time>
      </trkpt>
      <trkpt lat="47.98837" lon="-4.2689">
        <ele>114.5341796875</ele>
        <time>2014-01-13T13:09:33Z</time>
      </trkpt>
      <trkpt lat="47.98844" lon="-4.26891">
        <ele>114.5341796875</ele>
        <time>2014-01-13T13:09:39Z</time>
      </trkpt>
      <trkpt lat="47.98849" lon="-4.26894">
        <ele>114.05358886719</ele>
        <time>2014-01-13T13:09:43Z</time>
      </trkpt>
      <trkpt lat="47.98853" lon="-4.26895">
        <ele>115.97619628906</ele>
        <time>2014-01-13T13:09:47Z</time>
      </trkpt>
      <trkpt lat="47.98861" lon="-4.26899">
        <ele>115.49560546875</ele>
        <time>2014-01-13T13:09:53Z</time>
      </trkpt>
      <trkpt lat="47.98868" lon="-4.26903">
        <ele>115.01489257812</ele>
        <time>2014-01-13T13:09:58Z</time>
      </trkpt>
      <trkpt lat="47.98875" lon="-4.26906">
        <ele>114.5341796875</ele>
        <time>2014-01-13T13:10:03Z</time>
      </trkpt>
      <trkpt lat="47.9888" lon="-4.2691">
        <ele>116.9375</ele>
        <time>2014-01-13T13:10:06Z</time>
      </trkpt>
      <trkpt lat="47.98884" lon="-4.26912">
        <ele>118.37939453125</ele>
        <time>2014-01-13T13:10:09Z</time>
      </trkpt>
      <trkpt lat="47.98891" lon="-4.26915">
        <ele>116.45678710938</ele>
        <time>2014-01-13T13:10:15Z</time>
      </trkpt>
      <trkpt lat="47.98898" lon="-4.26918">
        <ele>118.86010742188</ele>
        <time>2014-01-13T13:10:20Z</time>
      </trkpt>
      <trkpt lat="47.98902" lon="-4.26922">
        <ele>116.9375</ele>
        <time>2014-01-13T13:10:24Z</time>
      </trkpt>
      <trkpt lat="47.98906" lon="-4.26931">
        <ele>115.01489257812</ele>
        <time>2014-01-13T13:10:29Z</time>
      </trkpt>
      <trkpt lat="47.98909" lon="-4.26937">
        <ele>114.5341796875</ele>
        <time>2014-01-13T13:10:35Z</time>
      </trkpt>
      <trkpt lat="47.9891" lon="-4.26942">
        <ele>114.5341796875</ele>
        <time>2014-01-13T13:10:40Z</time>
      </trkpt>
      <trkpt lat="47.98917" lon="-4.2695">
        <ele>111.65026855469</ele>
        <time>2014-01-13T13:10:47Z</time>
      </trkpt>
      <trkpt lat="47.98919" lon="-4.26955">
        <ele>111.65026855469</ele>
        <time>2014-01-13T13:10:51Z</time>
      </trkpt>
      <trkpt lat="47.98923" lon="-4.26962">
        <ele>114.05358886719</ele>
        <time>2014-01-13T13:10:56Z</time>
      </trkpt>
      <trkpt lat="47.98926" lon="-4.26971">
        <ele>115.01489257812</ele>
        <time>2014-01-13T13:11:01Z</time>
      </trkpt>
      <trkpt lat="47.98926" lon="-4.26978">
        <ele>116.45678710938</ele>
        <time>2014-01-13T13:11:05Z</time>
      </trkpt>
      <trkpt lat="47.98925" lon="-4.26991">
        <ele>116.9375</ele>
        <time>2014-01-13T13:11:12Z</time>
      </trkpt>
      <trkpt lat="47.98923" lon="-4.27003">
        <ele>115.01489257812</ele>
        <time>2014-01-13T13:11:19Z</time>
      </trkpt>
      <trkpt lat="47.98922" lon="-4.27016">
        <ele>115.49560546875</ele>
        <time>2014-01-13T13:11:25Z</time>
      </trkpt>
      <trkpt lat="47.98922" lon="-4.27025">
        <ele>116.9375</ele>
        <time>2014-01-13T13:11:29Z</time>
      </trkpt>
      <trkpt lat="47.9892" lon="-4.27031">
        <ele>116.45678710938</ele>
        <time>2014-01-13T13:11:33Z</time>
      </trkpt>
      <trkpt lat="47.9892" lon="-4.27042">
        <ele>115.97619628906</ele>
        <time>2014-01-13T13:11:39Z</time>
      </trkpt>
      <trkpt lat="47.9892" lon="-4.27056">
        <ele>117.41821289062</ele>
        <time>2014-01-13T13:11:46Z</time>
      </trkpt>
      <trkpt lat="47.98919" lon="-4.27069">
        <ele>116.9375</ele>
        <time>2014-01-13T13:11:53Z</time>
      </trkpt>
      <trkpt lat="47.98916" lon="-4.2708">
        <ele>117.41821289062</ele>
        <time>2014-01-13T13:11:59Z</time>
      </trkpt>
      <trkpt lat="47.98916" lon="-4.27088">
        <ele>118.37939453125</ele>
        <time>2014-01-13T13:12:03Z</time>
      </trkpt>
      <trkpt lat="47.98917" lon="-4.27096">
        <ele>117.89880371094</ele>
        <time>2014-01-13T13:12:07Z</time>
      </trkpt>
      <trkpt lat="47.98916" lon="-4.271">
        <ele>115.97619628906</ele>
        <time>2014-01-13T13:12:10Z</time>
      </trkpt>
      <trkpt lat="47.98915" lon="-4.27103">
        <ele>114.5341796875</ele>
        <time>2014-01-13T13:12:12Z</time>
      </trkpt>
      <trkpt lat="47.98914" lon="-4.27109">
        <ele>111.65026855469</ele>
        <time>2014-01-13T13:12:16Z</time>
      </trkpt>
      <trkpt lat="47.98912" lon="-4.27114">
        <ele>108.76623535156</ele>
        <time>2014-01-13T13:12:20Z</time>
      </trkpt>
      <trkpt lat="47.98912" lon="-4.27126">
        <ele>109.24694824219</ele>
        <time>2014-01-13T13:12:26Z</time>
      </trkpt>
      <trkpt lat="47.98919" lon="-4.2713">
        <ele>108.28564453125</ele>
        <time>2014-01-13T13:12:31Z</time>
      </trkpt>
      <trkpt lat="47.98922" lon="-4.27131">
        <ele>108.28564453125</ele>
        <time>2014-01-13T13:12:34Z</time>
      </trkpt>
      <trkpt lat="47.98933" lon="-4.27136">
        <ele>108.28564453125</ele>
        <time>2014-01-13T13:12:43Z</time>
      </trkpt>
      <trkpt lat="47.98942" lon="-4.27141">
        <ele>110.68884277344</ele>
        <time>2014-01-13T13:12:51Z</time>
      </trkpt>
      <trkpt lat="47.98952" lon="-4.27149">
        <ele>113.57299804688</ele>
        <time>2014-01-13T13:12:59Z</time>
      </trkpt>
      <trkpt lat="47.98963" lon="-4.27154">
        <ele>114.5341796875</ele>
        <time>2014-01-13T13:13:08Z</time>
      </trkpt>
      <trkpt lat="47.98975" lon="-4.27158">
        <ele>115.01489257812</ele>
        <time>2014-01-13T13:13:17Z</time>
      </trkpt>
      <trkpt lat="47.98986" lon="-4.27162">
        <ele>114.5341796875</ele>
        <time>2014-01-13T13:13:26Z</time>
      </trkpt>
      <trkpt lat="47.98998" lon="-4.27166">
        <ele>114.5341796875</ele>
        <time>2014-01-13T13:13:35Z</time>
      </trkpt>
      <trkpt lat="47.99008" lon="-4.2717">
        <ele>115.49560546875</ele>
        <time>2014-01-13T13:13:43Z</time>
      </trkpt>
      <trkpt lat="47.9901" lon="-4.27169">
        <ele>114.05358886719</ele>
        <time>2014-01-13T13:13:45Z</time>
      </trkpt>
      <trkpt lat="47.99017" lon="-4.27155">
        <ele>113.57299804688</ele>
        <time>2014-01-13T13:13:53Z</time>
      </trkpt>
      <trkpt lat="47.99022" lon="-4.2714">
        <ele>115.49560546875</ele>
        <time>2014-01-13T13:14:01Z</time>
      </trkpt>
      <trkpt lat="47.99026" lon="-4.27123">
        <ele>115.49560546875</ele>
        <time>2014-01-13T13:14:10Z</time>
      </trkpt>
      <trkpt lat="47.99029" lon="-4.27109">
        <ele>115.97619628906</ele>
        <time>2014-01-13T13:14:17Z</time>
      </trkpt>
      <trkpt lat="47.99034" lon="-4.2709">
        <ele>116.45678710938</ele>
        <time>2014-01-13T13:14:27Z</time>
      </trkpt>
      <trkpt lat="47.99037" lon="-4.27075">
        <ele>116.45678710938</ele>
        <time>2014-01-13T13:14:35Z</time>
      </trkpt>
      <trkpt lat="47.99041" lon="-4.27059">
        <ele>116.45678710938</ele>
        <time>2014-01-13T13:14:44Z</time>
      </trkpt>
      <trkpt lat="47.99047" lon="-4.27037">
        <ele>116.45678710938</ele>
        <time>2014-01-13T13:14:56Z</time>
      </trkpt>
      <trkpt lat="47.99049" lon="-4.27024">
        <ele>115.97619628906</ele>
        <time>2014-01-13T13:15:03Z</time>
      </trkpt>
      <trkpt lat="47.99054" lon="-4.27005">
        <ele>115.97619628906</ele>
        <time>2014-01-13T13:15:13Z</time>
      </trkpt>
      <trkpt lat="47.99059" lon="-4.26987">
        <ele>115.97619628906</ele>
        <time>2014-01-13T13:15:23Z</time>
      </trkpt>
      <trkpt lat="47.99062" lon="-4.26977">
        <ele>115.97619628906</ele>
        <time>2014-01-13T13:15:29Z</time>
      </trkpt>
      <trkpt lat="47.9907" lon="-4.26969">
        <ele>116.45678710938</ele>
        <time>2014-01-13T13:15:37Z</time>
      </trkpt>
      <trkpt lat="47.99078" lon="-4.26963">
        <ele>116.45678710938</ele>
        <time>2014-01-13T13:15:44Z</time>
      </trkpt>
      <trkpt lat="47.99086" lon="-4.26957">
        <ele>116.9375</ele>
        <time>2014-01-13T13:15:51Z</time>
      </trkpt>
      <trkpt lat="47.99092" lon="-4.26954">
        <ele>116.9375</ele>
        <time>2014-01-13T13:15:56Z</time>
      </trkpt>
      <trkpt lat="47.99099" lon="-4.26947">
        <ele>116.45678710938</ele>
        <time>2014-01-13T13:16:03Z</time>
      </trkpt>
      <trkpt lat="47.99105" lon="-4.26943">
        <ele>116.45678710938</ele>
        <time>2014-01-13T13:16:09Z</time>
      </trkpt>
      <trkpt lat="47.99113" lon="-4.26936">
        <ele>115.49560546875</ele>
        <time>2014-01-13T13:16:16Z</time>
      </trkpt>
      <trkpt lat="47.99118" lon="-4.2693">
        <ele>114.05358886719</ele>
        <time>2014-01-13T13:16:22Z</time>
      </trkpt>
      <trkpt lat="47.99128" lon="-4.26921">
        <ele>112.61157226562</ele>
        <time>2014-01-13T13:16:30Z</time>
      </trkpt>
      <trkpt lat="47.99138" lon="-4.26914">
        <ele>112.61157226562</ele>
        <time>2014-01-13T13:16:38Z</time>
      </trkpt>
      <trkpt lat="47.99146" lon="-4.26908">
        <ele>112.61157226562</ele>
        <time>2014-01-13T13:16:45Z</time>
      </trkpt>
      <trkpt lat="47.99153" lon="-4.26903">
        <ele>112.61157226562</ele>
        <time>2014-01-13T13:16:51Z</time>
      </trkpt>
      <trkpt lat="47.99163" lon="-4.26899">
        <ele>114.5341796875</ele>
        <time>2014-01-13T13:16:58Z</time>
      </trkpt>
      <trkpt lat="47.99169" lon="-4.26896">
        <ele>115.49560546875</ele>
        <time>2014-01-13T13:17:03Z</time>
      </trkpt>
      <trkpt lat="47.99176" lon="-4.26892">
        <ele>116.9375</ele>
        <time>2014-01-13T13:17:09Z</time>
      </trkpt>
      <trkpt lat="47.99182" lon="-4.26888">
        <ele>117.89880371094</ele>
        <time>2014-01-13T13:17:13Z</time>
      </trkpt>
      <trkpt lat="47.99187" lon="-4.26887">
        <ele>119.82141113281</ele>
        <time>2014-01-13T13:17:17Z</time>
      </trkpt>
      <trkpt lat="47.99198" lon="-4.2688">
        <ele>120.30212402344</ele>
        <time>2014-01-13T13:17:25Z</time>
      </trkpt>
      <trkpt lat="47.99211" lon="-4.26875">
        <ele>118.86010742188</ele>
        <time>2014-01-13T13:17:34Z</time>
      </trkpt>
      <trkpt lat="47.99212" lon="-4.26873">
        <ele>118.86010742188</ele>
        <time>2014-01-13T13:17:36Z</time>
      </trkpt>
      <trkpt lat="47.99227" lon="-4.26868">
        <ele>120.30212402344</ele>
        <time>2014-01-13T13:17:45Z</time>
      </trkpt>
      <trkpt lat="47.99236" lon="-4.26863">
        <ele>121.26354980469</ele>
        <time>2014-01-13T13:17:52Z</time>
      </trkpt>
      <trkpt lat="47.99248" lon="-4.26858">
        <ele>122.22473144531</ele>
        <time>2014-01-13T13:18:01Z</time>
      </trkpt>
      <trkpt lat="47.99258" lon="-4.26853">
        <ele>122.70544433594</ele>
        <time>2014-01-13T13:18:09Z</time>
      </trkpt>
      <trkpt lat="47.99266" lon="-4.26848">
        <ele>122.70544433594</ele>
        <time>2014-01-13T13:18:16Z</time>
      </trkpt>
      <trkpt lat="47.99275" lon="-4.26844">
        <ele>122.22473144531</ele>
        <time>2014-01-13T13:18:23Z</time>
      </trkpt>
      <trkpt lat="47.99282" lon="-4.2684">
        <ele>122.22473144531</ele>
        <time>2014-01-13T13:18:29Z</time>
      </trkpt>
      <trkpt lat="47.99289" lon="-4.26837">
        <ele>122.22473144531</ele>
        <time>2014-01-13T13:18:34Z</time>
      </trkpt>
      <trkpt lat="47.993" lon="-4.26833">
        <ele>122.22473144531</ele>
        <time>2014-01-13T13:18:43Z</time>
      </trkpt>
      <trkpt lat="47.9931" lon="-4.2683">
        <ele>122.70544433594</ele>
        <time>2014-01-13T13:18:51Z</time>
      </trkpt>
      <trkpt lat="47.99323" lon="-4.26827">
        <ele>123.66674804688</ele>
        <time>2014-01-13T13:19:01Z</time>
      </trkpt>
      <trkpt lat="47.99335" lon="-4.26825">
        <ele>124.14733886719</ele>
        <time>2014-01-13T13:19:10Z</time>
      </trkpt>
      <trkpt lat="47.99345" lon="-4.26823">
        <ele>124.14733886719</ele>
        <time>2014-01-13T13:19:18Z</time>
      </trkpt>
      <trkpt lat="47.99355" lon="-4.26821">
        <ele>125.10876464844</ele>
        <time>2014-01-13T13:19:26Z</time>
      </trkpt>
      <trkpt lat="47.99365" lon="-4.2682">
        <ele>126.06994628906</ele>
        <time>2014-01-13T13:19:33Z</time>
      </trkpt>
      <trkpt lat="47.99378" lon="-4.26818">
        <ele>127.03137207031</ele>
        <time>2014-01-13T13:19:42Z</time>
      </trkpt>
      <trkpt lat="47.9939" lon="-4.26817">
        <ele>127.99255371094</ele>
        <time>2014-01-13T13:19:51Z</time>
      </trkpt>
      <trkpt lat="47.99399" lon="-4.26816">
        <ele>127.99255371094</ele>
        <time>2014-01-13T13:19:58Z</time>
      </trkpt>
      <trkpt lat="47.99409" lon="-4.26815">
        <ele>128.47338867188</ele>
        <time>2014-01-13T13:20:06Z</time>
      </trkpt>
      <trkpt lat="47.99422" lon="-4.26815">
        <ele>126.55065917969</ele>
        <time>2014-01-13T13:20:15Z</time>
      </trkpt>
      <trkpt lat="47.99431" lon="-4.26814">
        <ele>125.58935546875</ele>
        <time>2014-01-13T13:20:22Z</time>
      </trkpt>
      <trkpt lat="47.99443" lon="-4.26816">
        <ele>126.55065917969</ele>
        <time>2014-01-13T13:20:31Z</time>
      </trkpt>
      <trkpt lat="47.9945" lon="-4.26816">
        <ele>127.51196289062</ele>
        <time>2014-01-13T13:20:37Z</time>
      </trkpt>
      <trkpt lat="47.99461" lon="-4.26817">
        <ele>127.99255371094</ele>
        <time>2014-01-13T13:20:46Z</time>
      </trkpt>
      <trkpt lat="47.99462" lon="-4.26817">
        <ele>127.99255371094</ele>
        <time>2014-01-13T13:20:50Z</time>
      </trkpt>
      <trkpt lat="47.99462" lon="-4.26823">
        <ele>127.99255371094</ele>
        <time>2014-01-13T13:20:57Z</time>
      </trkpt>
      <trkpt lat="47.99462" lon="-4.26825">
        <ele>126.55065917969</ele>
        <time>2014-01-13T13:21:04Z</time>
      </trkpt>
      <trkpt lat="47.99462" lon="-4.26826">
        <ele>126.06994628906</ele>
        <time>2014-01-13T13:21:13Z</time>
      </trkpt>
      <trkpt lat="47.99461" lon="-4.26827">
        <ele>124.62805175781</ele>
        <time>2014-01-13T13:21:20Z</time>
      </trkpt>
      <trkpt lat="47.99463" lon="-4.26827">
        <ele>124.62805175781</ele>
        <time>2014-01-13T13:21:26Z</time>
      </trkpt>
      <trkpt lat="47.99466" lon="-4.26819">
        <ele>125.10876464844</ele>
        <time>2014-01-13T13:21:31Z</time>
      </trkpt>
      <trkpt lat="47.99471" lon="-4.2681">
        <ele>127.99255371094</ele>
        <time>2014-01-13T13:21:37Z</time>
      </trkpt>
      <trkpt lat="47.99475" lon="-4.26802">
        <ele>129.43469238281</ele>
        <time>2014-01-13T13:21:41Z</time>
      </trkpt>
      <trkpt lat="47.99477" lon="-4.26798">
        <ele>130.87670898438</ele>
        <time>2014-01-13T13:21:43Z</time>
      </trkpt>
      <trkpt lat="47.99483" lon="-4.26785">
        <ele>133.27990722656</ele>
        <time>2014-01-13T13:21:50Z</time>
      </trkpt>
      <trkpt lat="47.99487" lon="-4.26772">
        <ele>133.76049804688</ele>
        <time>2014-01-13T13:21:57Z</time>
      </trkpt>
      <trkpt lat="47.99488" lon="-4.26768">
        <ele>132.79931640625</ele>
        <time>2014-01-13T13:21:59Z</time>
      </trkpt>
      <trkpt lat="47.99493" lon="-4.26752">
        <ele>129.43469238281</ele>
        <time>2014-01-13T13:22:08Z</time>
      </trkpt>
      <trkpt lat="47.99493" lon="-4.26744">
        <ele>128.47338867188</ele>
        <time>2014-01-13T13:22:12Z</time>
      </trkpt>
      <trkpt lat="47.99494" lon="-4.26738">
        <ele>128.9541015625</ele>
        <time>2014-01-13T13:22:15Z</time>
      </trkpt>
      <trkpt lat="47.99496" lon="-4.26727">
        <ele>127.99255371094</ele>
        <time>2014-01-13T13:22:21Z</time>
      </trkpt>
      <trkpt lat="47.99496" lon="-4.2672">
        <ele>127.03137207031</ele>
        <time>2014-01-13T13:22:24Z</time>
      </trkpt>
      <trkpt lat="47.99496" lon="-4.26716">
        <ele>126.06994628906</ele>
        <time>2014-01-13T13:22:26Z</time>
      </trkpt>
      <trkpt lat="47.99498" lon="-4.26707">
        <ele>124.14733886719</ele>
        <time>2014-01-13T13:22:31Z</time>
      </trkpt>
      <trkpt lat="47.99501" lon="-4.26691">
        <ele>122.70544433594</ele>
        <time>2014-01-13T13:22:40Z</time>
      </trkpt>
      <trkpt lat="47.99502" lon="-4.26687">
        <ele>122.22473144531</ele>
        <time>2014-01-13T13:22:42Z</time>
      </trkpt>
      <trkpt lat="47.99502" lon="-4.26674">
        <ele>123.66674804688</ele>
        <time>2014-01-13T13:22:48Z</time>
      </trkpt>
      <trkpt lat="47.99504" lon="-4.26658">
        <ele>123.66674804688</ele>
        <time>2014-01-13T13:22:56Z</time>
      </trkpt>
      <trkpt lat="47.99506" lon="-4.26648">
        <ele>122.70544433594</ele>
        <time>2014-01-13T13:23:02Z</time>
      </trkpt>
      <trkpt lat="47.99512" lon="-4.26641">
        <ele>122.70544433594</ele>
        <time>2014-01-13T13:23:07Z</time>
      </trkpt>
      <trkpt lat="47.99514" lon="-4.26637">
        <ele>122.22473144531</ele>
        <time>2014-01-13T13:23:10Z</time>
      </trkpt>
      <trkpt lat="47.99517" lon="-4.26631">
        <ele>121.744140625</ele>
        <time>2014-01-13T13:23:14Z</time>
      </trkpt>
      <trkpt lat="47.99518" lon="-4.26621">
        <ele>120.30212402344</ele>
        <time>2014-01-13T13:23:19Z</time>
      </trkpt>
      <trkpt lat="47.99518" lon="-4.26611">
        <ele>119.3408203125</ele>
        <time>2014-01-13T13:23:25Z</time>
      </trkpt>
      <trkpt lat="47.99518" lon="-4.26609">
        <ele>118.37939453125</ele>
        <time>2014-01-13T13:23:26Z</time>
      </trkpt>
      <trkpt lat="47.99523" lon="-4.26594">
        <ele>117.41821289062</ele>
        <time>2014-01-13T13:23:34Z</time>
      </trkpt>
      <trkpt lat="47.99523" lon="-4.26593">
        <ele>117.41821289062</ele>
        <time>2014-01-13T13:23:35Z</time>
      </trkpt>
      <trkpt lat="47.99522" lon="-4.26589">
        <ele>118.37939453125</ele>
        <time>2014-01-13T13:23:37Z</time>
      </trkpt>
      <trkpt lat="47.99522" lon="-4.2658">
        <ele>117.89880371094</ele>
        <time>2014-01-13T13:23:42Z</time>
      </trkpt>
      <trkpt lat="47.99521" lon="-4.26574">
        <ele>118.86010742188</ele>
        <time>2014-01-13T13:23:46Z</time>
      </trkpt>
      <trkpt lat="47.99519" lon="-4.26564">
        <ele>119.82141113281</ele>
        <time>2014-01-13T13:23:51Z</time>
      </trkpt>
      <trkpt lat="47.99517" lon="-4.26556">
        <ele>118.37939453125</ele>
        <time>2014-01-13T13:23:55Z</time>
      </trkpt>
      <trkpt lat="47.99515" lon="-4.26551">
        <ele>118.86010742188</ele>
        <time>2014-01-13T13:23:58Z</time>
      </trkpt>
      <trkpt lat="47.99513" lon="-4.26536">
        <ele>117.41821289062</ele>
        <time>2014-01-13T13:24:05Z</time>
      </trkpt>
      <trkpt lat="47.99513" lon="-4.2653">
        <ele>117.41821289062</ele>
        <time>2014-01-13T13:24:08Z</time>
      </trkpt>
      <trkpt lat="47.99511" lon="-4.2652">
        <ele>116.9375</ele>
        <time>2014-01-13T13:24:13Z</time>
      </trkpt>
      <trkpt lat="47.9951" lon="-4.26518">
        <ele>116.9375</ele>
        <time>2014-01-13T13:24:14Z</time>
      </trkpt>
      <trkpt lat="47.99509" lon="-4.26515">
        <ele>115.97619628906</ele>
        <time>2014-01-13T13:24:16Z</time>
      </trkpt>
      <trkpt lat="47.99511" lon="-4.26499">
        <ele>115.49560546875</ele>
        <time>2014-01-13T13:24:23Z</time>
      </trkpt>
      <trkpt lat="47.99511" lon="-4.26497">
        <ele>115.01489257812</ele>
        <time>2014-01-13T13:24:24Z</time>
      </trkpt>
      <trkpt lat="47.9951" lon="-4.26484">
        <ele>115.01489257812</ele>
        <time>2014-01-13T13:24:31Z</time>
      </trkpt>
      <trkpt lat="47.99512" lon="-4.26475">
        <ele>112.61157226562</ele>
        <time>2014-01-13T13:24:36Z</time>
      </trkpt>
      <trkpt lat="47.99512" lon="-4.26472">
        <ele>112.13098144531</ele>
        <time>2014-01-13T13:24:37Z</time>
      </trkpt>
      <trkpt lat="47.99515" lon="-4.26458">
        <ele>114.5341796875</ele>
        <time>2014-01-13T13:24:43Z</time>
      </trkpt>
      <trkpt lat="47.99516" lon="-4.26451">
        <ele>114.5341796875</ele>
        <time>2014-01-13T13:24:47Z</time>
      </trkpt>
      <trkpt lat="47.99516" lon="-4.26445">
        <ele>114.5341796875</ele>
        <time>2014-01-13T13:24:49Z</time>
      </trkpt>
      <trkpt lat="47.99518" lon="-4.26439">
        <ele>116.9375</ele>
        <time>2014-01-13T13:24:53Z</time>
      </trkpt>
      <trkpt lat="47.99525" lon="-4.2643">
        <ele>121.26354980469</ele>
        <time>2014-01-13T13:24:58Z</time>
      </trkpt>
      <trkpt lat="47.99533" lon="-4.26418">
        <ele>122.70544433594</ele>
        <time>2014-01-13T13:25:06Z</time>
      </trkpt>
      <trkpt lat="47.99538" lon="-4.26412">
        <ele>122.22473144531</ele>
        <time>2014-01-13T13:25:11Z</time>
      </trkpt>
      <trkpt lat="47.99543" lon="-4.26405">
        <ele>121.26354980469</ele>
        <time>2014-01-13T13:25:16Z</time>
      </trkpt>
      <trkpt lat="47.99551" lon="-4.26397">
        <ele>119.82141113281</ele>
        <time>2014-01-13T13:25:24Z</time>
      </trkpt>
      <trkpt lat="47.99556" lon="-4.26395">
        <ele>120.30212402344</ele>
        <time>2014-01-13T13:25:27Z</time>
      </trkpt>
      <trkpt lat="47.99559" lon="-4.26393">
        <ele>119.82141113281</ele>
        <time>2014-01-13T13:25:30Z</time>
      </trkpt>
      <trkpt lat="47.99566" lon="-4.26389">
        <ele>117.89880371094</ele>
        <time>2014-01-13T13:25:36Z</time>
      </trkpt>
      <trkpt lat="47.99572" lon="-4.26385">
        <ele>116.45678710938</ele>
        <time>2014-01-13T13:25:42Z</time>
      </trkpt>
      <trkpt lat="47.99578" lon="-4.26382">
        <ele>116.45678710938</ele>
        <time>2014-01-13T13:25:47Z</time>
      </trkpt>
      <trkpt lat="47.99585" lon="-4.26378">
        <ele>116.45678710938</ele>
        <time>2014-01-13T13:25:53Z</time>
      </trkpt>
      <trkpt lat="47.99588" lon="-4.26377">
        <ele>115.49560546875</ele>
        <time>2014-01-13T13:25:56Z</time>
      </trkpt>
      <trkpt lat="47.9959" lon="-4.26376">
        <ele>115.01489257812</ele>
        <time>2014-01-13T13:25:58Z</time>
      </trkpt>
      <trkpt lat="47.99597" lon="-4.26374">
        <ele>115.97619628906</ele>
        <time>2014-01-13T13:26:02Z</time>
      </trkpt>
      <trkpt lat="47.99607" lon="-4.26371">
        <ele>117.89880371094</ele>
        <time>2014-01-13T13:26:09Z</time>
      </trkpt>
      <trkpt lat="47.99614" lon="-4.26368">
        <ele>119.82141113281</ele>
        <time>2014-01-13T13:26:17Z</time>
      </trkpt>
      <trkpt lat="47.99615" lon="-4.26363">
        <ele>117.89880371094</ele>
        <time>2014-01-13T13:26:24Z</time>
      </trkpt>
      <trkpt lat="47.9962" lon="-4.26363">
        <ele>116.9375</ele>
        <time>2014-01-13T13:26:31Z</time>
      </trkpt>
      <trkpt lat="47.99622" lon="-4.26363">
        <ele>116.45678710938</ele>
        <time>2014-01-13T13:26:37Z</time>
      </trkpt>
      <trkpt lat="47.99623" lon="-4.26363">
        <ele>117.41821289062</ele>
        <time>2014-01-13T13:26:43Z</time>
      </trkpt>
      <trkpt lat="47.99629" lon="-4.26364">
        <ele>117.41821289062</ele>
        <time>2014-01-13T13:26:48Z</time>
      </trkpt>
      <trkpt lat="47.99635" lon="-4.26365">
        <ele>114.5341796875</ele>
        <time>2014-01-13T13:26:55Z</time>
      </trkpt>
      <trkpt lat="47.99636" lon="-4.26369">
        <ele>115.01489257812</ele>
        <time>2014-01-13T13:27:18Z</time>
      </trkpt>
      <trkpt lat="47.99638" lon="-4.2637">
        <ele>115.49560546875</ele>
        <time>2014-01-13T13:27:25Z</time>
      </trkpt>
      <trkpt lat="47.99641" lon="-4.2637">
        <ele>116.9375</ele>
        <time>2014-01-13T13:27:29Z</time>
      </trkpt>
      <trkpt lat="47.99647" lon="-4.2637">
        <ele>117.89880371094</ele>
        <time>2014-01-13T13:27:34Z</time>
      </trkpt>
      <trkpt lat="47.99652" lon="-4.26369">
        <ele>117.41821289062</ele>
        <time>2014-01-13T13:27:38Z</time>
      </trkpt>
      <trkpt lat="47.99657" lon="-4.26369">
        <ele>117.41821289062</ele>
        <time>2014-01-13T13:27:43Z</time>
      </trkpt>
      <trkpt lat="47.9966" lon="-4.26371">
        <ele>116.9375</ele>
        <time>2014-01-13T13:27:48Z</time>
      </trkpt>
      <trkpt lat="47.99664" lon="-4.26373">
        <ele>115.49560546875</ele>
        <time>2014-01-13T13:27:52Z</time>
      </trkpt>
      <trkpt lat="47.9967" lon="-4.26378">
        <ele>116.9375</ele>
        <time>2014-01-13T13:27:57Z</time>
      </trkpt>
      <trkpt lat="47.99675" lon="-4.26381">
        <ele>117.89880371094</ele>
        <time>2014-01-13T13:28:10Z</time>
      </trkpt>
      <trkpt lat="47.9968" lon="-4.2638">
        <ele>119.82141113281</ele>
        <time>2014-01-13T13:28:15Z</time>
      </trkpt>
      <trkpt lat="47.99682" lon="-4.26383">
        <ele>120.30212402344</ele>
        <time>2014-01-13T13:28:19Z</time>
      </trkpt>
      <trkpt lat="47.99683" lon="-4.26382">
        <ele>116.9375</ele>
        <time>2014-01-13T13:28:28Z</time>
      </trkpt>
      <trkpt lat="47.99689" lon="-4.26381">
        <ele>116.9375</ele>
        <time>2014-01-13T13:28:34Z</time>
      </trkpt>
      <trkpt lat="47.99692" lon="-4.26383">
        <ele>114.5341796875</ele>
        <time>2014-01-13T13:28:40Z</time>
      </trkpt>
      <trkpt lat="47.99694" lon="-4.26384">
        <ele>115.97619628906</ele>
        <time>2014-01-13T13:28:51Z</time>
      </trkpt>
      <trkpt lat="47.99693" lon="-4.26385">
        <ele>119.3408203125</ele>
        <time>2014-01-13T13:28:59Z</time>
      </trkpt>
      <trkpt lat="47.99695" lon="-4.26388">
        <ele>120.78283691406</ele>
        <time>2014-01-13T13:29:12Z</time>
      </trkpt>
      <trkpt lat="47.99692" lon="-4.26387">
        <ele>126.55065917969</ele>
        <time>2014-01-13T13:29:22Z</time>
      </trkpt>
      <trkpt lat="47.99692" lon="-4.26384">
        <ele>123.66674804688</ele>
        <time>2014-01-13T13:29:29Z</time>
      </trkpt>
      <trkpt lat="47.99696" lon="-4.26383">
        <ele>122.22473144531</ele>
        <time>2014-01-13T13:29:39Z</time>
      </trkpt>
      <trkpt lat="47.997" lon="-4.26385">
        <ele>121.26354980469</ele>
        <time>2014-01-13T13:29:43Z</time>
      </trkpt>
      <trkpt lat="47.99709" lon="-4.26385">
        <ele>119.82141113281</ele>
        <time>2014-01-13T13:29:49Z</time>
      </trkpt>
      <trkpt lat="47.99714" lon="-4.26386">
        <ele>119.3408203125</ele>
        <time>2014-01-13T13:29:54Z</time>
      </trkpt>
      <trkpt lat="47.9972" lon="-4.26388">
        <ele>118.86010742188</ele>
        <time>2014-01-13T13:30:00Z</time>
      </trkpt>
      <trkpt lat="47.99726" lon="-4.26388">
        <ele>118.37939453125</ele>
        <time>2014-01-13T13:30:05Z</time>
      </trkpt>
      <trkpt lat="47.99733" lon="-4.2639">
        <ele>117.41821289062</ele>
        <time>2014-01-13T13:30:12Z</time>
      </trkpt>
      <trkpt lat="47.9974" lon="-4.26391">
        <ele>115.97619628906</ele>
        <time>2014-01-13T13:30:18Z</time>
      </trkpt>
      <trkpt lat="47.99752" lon="-4.26389">
        <ele>115.49560546875</ele>
        <time>2014-01-13T13:30:25Z</time>
      </trkpt>
      <trkpt lat="47.99758" lon="-4.2639">
        <ele>116.45678710938</ele>
        <time>2014-01-13T13:30:30Z</time>
      </trkpt>
      <trkpt lat="47.99767" lon="-4.2639">
        <ele>116.45678710938</ele>
        <time>2014-01-13T13:30:36Z</time>
      </trkpt>
      <trkpt lat="47.99769" lon="-4.2639">
        <ele>117.89880371094</ele>
        <time>2014-01-13T13:30:37Z</time>
      </trkpt>
      <trkpt lat="47.99771" lon="-4.2639">
        <ele>118.37939453125</ele>
        <time>2014-01-13T13:30:39Z</time>
      </trkpt>
      <trkpt lat="47.99782" lon="-4.26389">
        <ele>120.78283691406</ele>
        <time>2014-01-13T13:30:46Z</time>
      </trkpt>
      <trkpt lat="47.99787" lon="-4.26388">
        <ele>120.78283691406</ele>
        <time>2014-01-13T13:30:51Z</time>
      </trkpt>
      <trkpt lat="47.9979" lon="-4.26387">
        <ele>120.78283691406</ele>
        <time>2014-01-13T13:30:58Z</time>
      </trkpt>
      <trkpt lat="47.99792" lon="-4.26388">
        <ele>123.18615722656</ele>
        <time>2014-01-13T13:31:09Z</time>
      </trkpt>
      <trkpt lat="47.99795" lon="-4.26385">
        <ele>122.22473144531</ele>
        <time>2014-01-13T13:31:32Z</time>
      </trkpt>
      <trkpt lat="47.998" lon="-4.26386">
        <ele>123.18615722656</ele>
        <time>2014-01-13T13:31:42Z</time>
      </trkpt>
      <trkpt lat="47.99806" lon="-4.26387">
        <ele>121.744140625</ele>
        <time>2014-01-13T13:31:49Z</time>
      </trkpt>
      <trkpt lat="47.9981" lon="-4.26385">
        <ele>121.744140625</ele>
        <time>2014-01-13T13:31:53Z</time>
      </trkpt>
      <trkpt lat="47.99816" lon="-4.26386">
        <ele>120.78283691406</ele>
        <time>2014-01-13T13:31:59Z</time>
      </trkpt>
      <trkpt lat="47.9982" lon="-4.26386">
        <ele>121.744140625</ele>
        <time>2014-01-13T13:32:03Z</time>
      </trkpt>
      <trkpt lat="47.99825" lon="-4.26386">
        <ele>121.744140625</ele>
        <time>2014-01-13T13:32:08Z</time>
      </trkpt>
      <trkpt lat="47.99836" lon="-4.26384">
        <ele>124.14733886719</ele>
        <time>2014-01-13T13:32:16Z</time>
      </trkpt>
      <trkpt lat="47.99844" lon="-4.26382">
        <ele>127.03137207031</ele>
        <time>2014-01-13T13:32:23Z</time>
      </trkpt>
      <trkpt lat="47.99851" lon="-4.26379">
        <ele>129.43469238281</ele>
        <time>2014-01-13T13:32:30Z</time>
      </trkpt>
      <trkpt lat="47.99853" lon="-4.26378">
        <ele>129.91528320312</ele>
        <time>2014-01-13T13:32:32Z</time>
      </trkpt>
      <trkpt lat="47.99858" lon="-4.26376">
        <ele>131.35729980469</ele>
        <time>2014-01-13T13:32:38Z</time>
      </trkpt>
      <trkpt lat="47.99861" lon="-4.26374">
        <ele>131.837890625</ele>
        <time>2014-01-13T13:32:44Z</time>
      </trkpt>
      <trkpt lat="47.99865" lon="-4.2637">
        <ele>132.31860351562</ele>
        <time>2014-01-13T13:32:53Z</time>
      </trkpt>
      <trkpt lat="47.99869" lon="-4.26367">
        <ele>131.35729980469</ele>
        <time>2014-01-13T13:32:58Z</time>
      </trkpt>
      <trkpt lat="47.99876" lon="-4.26364">
        <ele>130.39599609375</ele>
        <time>2014-01-13T13:33:05Z</time>
      </trkpt>
      <trkpt lat="47.99877" lon="-4.26363">
        <ele>130.39599609375</ele>
        <time>2014-01-13T13:33:06Z</time>
      </trkpt>
      <trkpt lat="47.99886" lon="-4.26355">
        <ele>130.39599609375</ele>
        <time>2014-01-13T13:33:14Z</time>
      </trkpt>
      <trkpt lat="47.99893" lon="-4.2635">
        <ele>130.87670898438</ele>
        <time>2014-01-13T13:33:20Z</time>
      </trkpt>
      <trkpt lat="47.99894" lon="-4.26349">
        <ele>130.87670898438</ele>
        <time>2014-01-13T13:33:21Z</time>
      </trkpt>
      <trkpt lat="47.99899" lon="-4.26346">
        <ele>131.837890625</ele>
        <time>2014-01-13T13:33:25Z</time>
      </trkpt>
      <trkpt lat="47.99908" lon="-4.26339">
        <ele>134.2412109375</ele>
        <time>2014-01-13T13:33:33Z</time>
      </trkpt>
      <trkpt lat="47.99916" lon="-4.2633">
        <ele>135.20251464844</ele>
        <time>2014-01-13T13:33:41Z</time>
      </trkpt>
      <trkpt lat="47.99923" lon="-4.2632">
        <ele>136.64465332031</ele>
        <time>2014-01-13T13:33:48Z</time>
      </trkpt>
      <trkpt lat="47.99929" lon="-4.26312">
        <ele>137.60583496094</ele>
        <time>2014-01-13T13:33:56Z</time>
      </trkpt>
      <trkpt lat="47.99932" lon="-4.2631">
        <ele>137.12524414062</ele>
        <time>2014-01-13T13:34:17Z</time>
      </trkpt>
      <trkpt lat="47.99935" lon="-4.26305">
        <ele>136.64465332031</ele>
        <time>2014-01-13T13:34:23Z</time>
      </trkpt>
      <trkpt lat="47.9994" lon="-4.26297">
        <ele>136.64465332031</ele>
        <time>2014-01-13T13:34:30Z</time>
      </trkpt>
      <trkpt lat="47.99943" lon="-4.26295">
        <ele>137.12524414062</ele>
        <time>2014-01-13T13:34:35Z</time>
      </trkpt>
      <trkpt lat="47.9994" lon="-4.26297">
        <ele>136.16394042969</ele>
        <time>2014-01-13T13:34:40Z</time>
      </trkpt>
      <trkpt lat="47.99938" lon="-4.263">
        <ele>135.68310546875</ele>
        <time>2014-01-13T13:34:42Z</time>
      </trkpt>
      <trkpt lat="47.99931" lon="-4.26311">
        <ele>136.64465332031</ele>
        <time>2014-01-13T13:34:50Z</time>
      </trkpt>
      <trkpt lat="47.99926" lon="-4.26319">
        <ele>136.64465332031</ele>
        <time>2014-01-13T13:34:56Z</time>
      </trkpt>
      <trkpt lat="47.99917" lon="-4.26331">
        <ele>136.16394042969</ele>
        <time>2014-01-13T13:35:06Z</time>
      </trkpt>
      <trkpt lat="47.99908" lon="-4.26338">
        <ele>136.16394042969</ele>
        <time>2014-01-13T13:35:14Z</time>
      </trkpt>
      <trkpt lat="47.99901" lon="-4.26344">
        <ele>137.60583496094</ele>
        <time>2014-01-13T13:35:21Z</time>
      </trkpt>
      <trkpt lat="47.99895" lon="-4.26348">
        <ele>137.60583496094</ele>
        <time>2014-01-13T13:35:26Z</time>
      </trkpt>
      <trkpt lat="47.9989" lon="-4.26354">
        <ele>137.12524414062</ele>
        <time>2014-01-13T13:35:31Z</time>
      </trkpt>
      <trkpt lat="47.99885" lon="-4.26356">
        <ele>137.60583496094</ele>
        <time>2014-01-13T13:35:36Z</time>
      </trkpt>
      <trkpt lat="47.99882" lon="-4.26358">
        <ele>137.60583496094</ele>
        <time>2014-01-13T13:35:38Z</time>
      </trkpt>
      <trkpt lat="47.99874" lon="-4.2636">
        <ele>137.12524414062</ele>
        <time>2014-01-13T13:35:45Z</time>
      </trkpt>
      <trkpt lat="47.99869" lon="-4.2636">
        <ele>136.16394042969</ele>
        <time>2014-01-13T13:35:51Z</time>
      </trkpt>
      <trkpt lat="47.99869" lon="-4.26362">
        <ele>135.68310546875</ele>
        <time>2014-01-13T13:35:56Z</time>
      </trkpt>
      <trkpt lat="47.99869" lon="-4.26367">
        <ele>135.20251464844</ele>
        <time>2014-01-13T13:35:59Z</time>
      </trkpt>
      <trkpt lat="47.99869" lon="-4.26378">
        <ele>135.20251464844</ele>
        <time>2014-01-13T13:36:06Z</time>
      </trkpt>
      <trkpt lat="47.99869" lon="-4.2638">
        <ele>135.20251464844</ele>
        <time>2014-01-13T13:36:07Z</time>
      </trkpt>
      <trkpt lat="47.99869" lon="-4.26392">
        <ele>134.72192382812</ele>
        <time>2014-01-13T13:36:14Z</time>
      </trkpt>
      <trkpt lat="47.99869" lon="-4.26406">
        <ele>134.2412109375</ele>
        <time>2014-01-13T13:36:22Z</time>
      </trkpt>
      <trkpt lat="47.9987" lon="-4.26413">
        <ele>134.2412109375</ele>
        <time>2014-01-13T13:36:28Z</time>
      </trkpt>
      <trkpt lat="47.9987" lon="-4.2641">
        <ele>134.2412109375</ele>
        <time>2014-01-13T13:36:30Z</time>
      </trkpt>
      <trkpt lat="47.99871" lon="-4.26398">
        <ele>133.27990722656</ele>
        <time>2014-01-13T13:36:36Z</time>
      </trkpt>
      <trkpt lat="47.99872" lon="-4.26378">
        <ele>133.27990722656</ele>
        <time>2014-01-13T13:36:46Z</time>
      </trkpt>
      <trkpt lat="47.99872" lon="-4.26374">
        <ele>133.76049804688</ele>
        <time>2014-01-13T13:36:48Z</time>
      </trkpt>
      <trkpt lat="47.99871" lon="-4.26368">
        <ele>133.76049804688</ele>
        <time>2014-01-13T13:36:52Z</time>
      </trkpt>
      <trkpt lat="47.9987" lon="-4.26353">
        <ele>134.72192382812</ele>
        <time>2014-01-13T13:37:00Z</time>
      </trkpt>
      <trkpt lat="47.99871" lon="-4.26354">
        <ele>134.72192382812</ele>
        <time>2014-01-13T13:37:04Z</time>
      </trkpt>
      <trkpt lat="47.99872" lon="-4.26359">
        <ele>134.72192382812</ele>
        <time>2014-01-13T13:37:11Z</time>
      </trkpt>
      <trkpt lat="47.99875" lon="-4.26364">
        <ele>133.76049804688</ele>
        <time>2014-01-13T13:37:18Z</time>
      </trkpt>
      <trkpt lat="47.99873" lon="-4.26367">
        <ele>134.72192382812</ele>
        <time>2014-01-13T13:37:24Z</time>
      </trkpt>
      <trkpt lat="47.9987" lon="-4.26367">
        <ele>134.72192382812</ele>
        <time>2014-01-13T13:37:30Z</time>
      </trkpt>
      <trkpt lat="47.99871" lon="-4.26369">
        <ele>134.72192382812</ele>
        <time>2014-01-13T13:37:36Z</time>
      </trkpt>
      <trkpt lat="47.99871" lon="-4.26376">
        <ele>135.20251464844</ele>
        <time>2014-01-13T13:37:42Z</time>
      </trkpt>
      <trkpt lat="47.99871" lon="-4.26379">
        <ele>134.72192382812</ele>
        <time>2014-01-13T13:37:44Z</time>
      </trkpt>
      <trkpt lat="47.99872" lon="-4.26385">
        <ele>134.2412109375</ele>
        <time>2014-01-13T13:37:47Z</time>
      </trkpt>
      <trkpt lat="47.99872" lon="-4.26397">
        <ele>135.68310546875</ele>
        <time>2014-01-13T13:37:53Z</time>
      </trkpt>
      <trkpt lat="47.9987" lon="-4.26408">
        <ele>136.16394042969</ele>
        <time>2014-01-13T13:37:59Z</time>
      </trkpt>
      <trkpt lat="47.99872" lon="-4.26418">
        <ele>135.68310546875</ele>
        <time>2014-01-13T13:38:04Z</time>
      </trkpt>
      <trkpt lat="47.99871" lon="-4.2643">
        <ele>135.68310546875</ele>
        <time>2014-01-13T13:38:11Z</time>
      </trkpt>
      <trkpt lat="47.99871" lon="-4.26432">
        <ele>135.68310546875</ele>
        <time>2014-01-13T13:38:13Z</time>
      </trkpt>
      <trkpt lat="47.99871" lon="-4.26445">
        <ele>135.68310546875</ele>
        <time>2014-01-13T13:38:21Z</time>
      </trkpt>
      <trkpt lat="47.9987" lon="-4.26454">
        <ele>136.16394042969</ele>
        <time>2014-01-13T13:38:27Z</time>
      </trkpt>
      <trkpt lat="47.99872" lon="-4.26452">
        <ele>136.16394042969</ele>
        <time>2014-01-13T13:38:32Z</time>
      </trkpt>
      <trkpt lat="47.99872" lon="-4.26449">
        <ele>136.16394042969</ele>
        <time>2014-01-13T13:38:34Z</time>
      </trkpt>
      <trkpt lat="47.99872" lon="-4.26438">
        <ele>135.68310546875</ele>
        <time>2014-01-13T13:38:39Z</time>
      </trkpt>
      <trkpt lat="47.99872" lon="-4.26425">
        <ele>135.20251464844</ele>
        <time>2014-01-13T13:38:46Z</time>
      </trkpt>
      <trkpt lat="47.99872" lon="-4.26423">
        <ele>135.68310546875</ele>
        <time>2014-01-13T13:38:47Z</time>
      </trkpt>
      <trkpt lat="47.99872" lon="-4.26412">
        <ele>135.20251464844</ele>
        <time>2014-01-13T13:38:53Z</time>
      </trkpt>
      <trkpt lat="47.99872" lon="-4.26409">
        <ele>135.20251464844</ele>
        <time>2014-01-13T13:38:54Z</time>
      </trkpt>
      <trkpt lat="47.99872" lon="-4.26402">
        <ele>134.72192382812</ele>
        <time>2014-01-13T13:38:58Z</time>
      </trkpt>
      <trkpt lat="47.99873" lon="-4.26399">
        <ele>135.20251464844</ele>
        <time>2014-01-13T13:39:00Z</time>
      </trkpt>
      <trkpt lat="47.99873" lon="-4.26395">
        <ele>134.72192382812</ele>
        <time>2014-01-13T13:39:02Z</time>
      </trkpt>
      <trkpt lat="47.99871" lon="-4.26387">
        <ele>134.2412109375</ele>
        <time>2014-01-13T13:39:06Z</time>
      </trkpt>
      <trkpt lat="47.99872" lon="-4.26374">
        <ele>133.27990722656</ele>
        <time>2014-01-13T13:39:12Z</time>
      </trkpt>
      <trkpt lat="47.99872" lon="-4.26373">
        <ele>133.27990722656</ele>
        <time>2014-01-13T13:39:13Z</time>
      </trkpt>
      <trkpt lat="47.99873" lon="-4.26369">
        <ele>132.79931640625</ele>
        <time>2014-01-13T13:39:15Z</time>
      </trkpt>
      <trkpt lat="47.99882" lon="-4.26359">
        <ele>134.2412109375</ele>
        <time>2014-01-13T13:39:24Z</time>
      </trkpt>
      <trkpt lat="47.9989" lon="-4.26354">
        <ele>134.2412109375</ele>
        <time>2014-01-13T13:39:31Z</time>
      </trkpt>
      <trkpt lat="47.99897" lon="-4.26348">
        <ele>134.72192382812</ele>
        <time>2014-01-13T13:39:38Z</time>
      </trkpt>
      <trkpt lat="47.99906" lon="-4.26341">
        <ele>136.16394042969</ele>
        <time>2014-01-13T13:39:46Z</time>
      </trkpt>
      <trkpt lat="47.99915" lon="-4.26334">
        <ele>138.08654785156</ele>
        <time>2014-01-13T13:39:54Z</time>
      </trkpt>
      <trkpt lat="47.9992" lon="-4.26327">
        <ele>138.56726074219</ele>
        <time>2014-01-13T13:40:00Z</time>
      </trkpt>
      <trkpt lat="47.99922" lon="-4.26322">
        <ele>138.56726074219</ele>
        <time>2014-01-13T13:40:03Z</time>
      </trkpt>
      <trkpt lat="47.99928" lon="-4.26316">
        <ele>139.0478515625</ele>
        <time>2014-01-13T13:40:09Z</time>
      </trkpt>
      <trkpt lat="47.99929" lon="-4.26315">
        <ele>139.52844238281</ele>
        <time>2014-01-13T13:40:10Z</time>
      </trkpt>
      <trkpt lat="47.99932" lon="-4.26313">
        <ele>139.0478515625</ele>
        <time>2014-01-13T13:40:24Z</time>
      </trkpt>
      <trkpt lat="47.99937" lon="-4.26305">
        <ele>139.0478515625</ele>
        <time>2014-01-13T13:40:30Z</time>
      </trkpt>
      <trkpt lat="47.99943" lon="-4.26295">
        <ele>139.52844238281</ele>
        <time>2014-01-13T13:40:37Z</time>
      </trkpt>
      <trkpt lat="47.99948" lon="-4.26285">
        <ele>140.48986816406</ele>
        <time>2014-01-13T13:40:44Z</time>
      </trkpt>
      <trkpt lat="47.99954" lon="-4.26273">
        <ele>142.89306640625</ele>
        <time>2014-01-13T13:40:52Z</time>
      </trkpt>
      <trkpt lat="47.99957" lon="-4.26262">
        <ele>142.41247558594</ele>
        <time>2014-01-13T13:40:58Z</time>
      </trkpt>
      <trkpt lat="47.99961" lon="-4.2625">
        <ele>142.89306640625</ele>
        <time>2014-01-13T13:41:05Z</time>
      </trkpt>
      <trkpt lat="47.99962" lon="-4.26246">
        <ele>142.89306640625</ele>
        <time>2014-01-13T13:41:08Z</time>
      </trkpt>
      <trkpt lat="47.99967" lon="-4.26231">
        <ele>140.48986816406</ele>
        <time>2014-01-13T13:41:17Z</time>
      </trkpt>
      <trkpt lat="47.99969" lon="-4.26227">
        <ele>139.52844238281</ele>
        <time>2014-01-13T13:41:19Z</time>
      </trkpt>
      <trkpt lat="47.9997" lon="-4.26222">
        <ele>140.00915527344</ele>
        <time>2014-01-13T13:41:23Z</time>
      </trkpt>
      <trkpt lat="47.99971" lon="-4.26217">
        <ele>139.0478515625</ele>
        <time>2014-01-13T13:41:26Z</time>
      </trkpt>
      <trkpt lat="47.99972" lon="-4.2621">
        <ele>139.52844238281</ele>
        <time>2014-01-13T13:41:32Z</time>
      </trkpt>
      <trkpt lat="47.99972" lon="-4.26208">
        <ele>139.52844238281</ele>
        <time>2014-01-13T13:41:33Z</time>
      </trkpt>
      <trkpt lat="47.99975" lon="-4.262">
        <ele>141.45104980469</ele>
        <time>2014-01-13T13:41:38Z</time>
      </trkpt>
      <trkpt lat="47.99975" lon="-4.26199">
        <ele>141.45104980469</ele>
        <time>2014-01-13T13:41:39Z</time>
      </trkpt>
      <trkpt lat="47.99976" lon="-4.26189">
        <ele>141.93176269531</ele>
        <time>2014-01-13T13:41:45Z</time>
      </trkpt>
      <trkpt lat="47.99977" lon="-4.26183">
        <ele>142.89306640625</ele>
        <time>2014-01-13T13:41:49Z</time>
      </trkpt>
      <trkpt lat="47.99977" lon="-4.26182">
        <ele>143.37365722656</ele>
        <time>2014-01-13T13:41:50Z</time>
      </trkpt>
      <trkpt lat="47.99979" lon="-4.2617">
        <ele>142.41247558594</ele>
        <time>2014-01-13T13:41:56Z</time>
      </trkpt>
      <trkpt lat="47.99982" lon="-4.2616">
        <ele>140.97045898438</ele>
        <time>2014-01-13T13:42:01Z</time>
      </trkpt>
      <trkpt lat="47.99982" lon="-4.26158">
        <ele>140.97045898438</ele>
        <time>2014-01-13T13:42:02Z</time>
      </trkpt>
      <trkpt lat="47.99983" lon="-4.26146">
        <ele>140.97045898438</ele>
        <time>2014-01-13T13:42:09Z</time>
      </trkpt>
      <trkpt lat="47.99985" lon="-4.26134">
        <ele>141.93176269531</ele>
        <time>2014-01-13T13:42:15Z</time>
      </trkpt>
      <trkpt lat="47.99988" lon="-4.26123">
        <ele>141.45104980469</ele>
        <time>2014-01-13T13:42:21Z</time>
      </trkpt>
      <trkpt lat="47.9999" lon="-4.26113">
        <ele>140.97045898438</ele>
        <time>2014-01-13T13:42:27Z</time>
      </trkpt>
      <trkpt lat="47.99991" lon="-4.2611">
        <ele>140.97045898438</ele>
        <time>2014-01-13T13:42:29Z</time>
      </trkpt>
      <trkpt lat="47.99995" lon="-4.26098">
        <ele>142.41247558594</ele>
        <time>2014-01-13T13:42:36Z</time>
      </trkpt>
      <trkpt lat="47.99997" lon="-4.2609">
        <ele>142.89306640625</ele>
        <time>2014-01-13T13:42:41Z</time>
      </trkpt>
      <trkpt lat="47.99997" lon="-4.26089">
        <ele>143.37365722656</ele>
        <time>2014-01-13T13:42:42Z</time>
      </trkpt>
      <trkpt lat="47.99999" lon="-4.26083">
        <ele>143.37365722656</ele>
        <time>2014-01-13T13:42:46Z</time>
      </trkpt>
      <trkpt lat="48" lon="-4.26078">
        <ele>143.37365722656</ele>
        <time>2014-01-13T13:42:50Z</time>
      </trkpt>
      <trkpt lat="48.00004" lon="-4.26065">
        <ele>143.37365722656</ele>
        <time>2014-01-13T13:42:57Z</time>
      </trkpt>
      <trkpt lat="48.00006" lon="-4.2606">
        <ele>143.37365722656</ele>
        <time>2014-01-13T13:43:00Z</time>
      </trkpt>
      <trkpt lat="48.00008" lon="-4.26053">
        <ele>143.37365722656</ele>
        <time>2014-01-13T13:43:04Z</time>
      </trkpt>
      <trkpt lat="48.00012" lon="-4.2604">
        <ele>141.93176269531</ele>
        <time>2014-01-13T13:43:11Z</time>
      </trkpt>
      <trkpt lat="48.00015" lon="-4.26031">
        <ele>142.41247558594</ele>
        <time>2014-01-13T13:43:16Z</time>
      </trkpt>
      <trkpt lat="48.00015" lon="-4.26021">
        <ele>143.85437011719</ele>
        <time>2014-01-13T13:43:22Z</time>
      </trkpt>
      <trkpt lat="48.00017" lon="-4.2601">
        <ele>145.77709960938</ele>
        <time>2014-01-13T13:43:28Z</time>
      </trkpt>
      <trkpt lat="48.0002" lon="-4.25999">
        <ele>145.77709960938</ele>
        <time>2014-01-13T13:43:34Z</time>
      </trkpt>
      <trkpt lat="48.00023" lon="-4.2599">
        <ele>146.73840332031</ele>
        <time>2014-01-13T13:43:39Z</time>
      </trkpt>
      <trkpt lat="48.00023" lon="-4.25987">
        <ele>146.73840332031</ele>
        <time>2014-01-13T13:43:41Z</time>
      </trkpt>
      <trkpt lat="48.0003" lon="-4.25975">
        <ele>148.66101074219</ele>
        <time>2014-01-13T13:43:49Z</time>
      </trkpt>
      <trkpt lat="48.00033" lon="-4.25968">
        <ele>148.66101074219</ele>
        <time>2014-01-13T13:43:53Z</time>
      </trkpt>
      <trkpt lat="48.00036" lon="-4.25955">
        <ele>149.62231445312</ele>
        <time>2014-01-13T13:44:00Z</time>
      </trkpt>
      <trkpt lat="48.00037" lon="-4.25947">
        <ele>150.58361816406</ele>
        <time>2014-01-13T13:44:05Z</time>
      </trkpt>
      <trkpt lat="48.0004" lon="-4.25936">
        <ele>148.66101074219</ele>
        <time>2014-01-13T13:44:12Z</time>
      </trkpt>
      <trkpt lat="48.00043" lon="-4.25923">
        <ele>147.21899414062</ele>
        <time>2014-01-13T13:44:19Z</time>
      </trkpt>
      <trkpt lat="48.00043" lon="-4.2592">
        <ele>146.73840332031</ele>
        <time>2014-01-13T13:44:21Z</time>
      </trkpt>
      <trkpt lat="48.00044" lon="-4.25913">
        <ele>146.2578125</ele>
        <time>2014-01-13T13:44:25Z</time>
      </trkpt>
      <trkpt lat="48.00048" lon="-4.25901">
        <ele>146.2578125</ele>
        <time>2014-01-13T13:44:32Z</time>
      </trkpt>
      <trkpt lat="48.00049" lon="-4.259">
        <ele>146.2578125</ele>
        <time>2014-01-13T13:44:33Z</time>
      </trkpt>
      <trkpt lat="48.00052" lon="-4.25892">
        <ele>146.73840332031</ele>
        <time>2014-01-13T13:44:38Z</time>
      </trkpt>
      <trkpt lat="48.00057" lon="-4.25878">
        <ele>146.73840332031</ele>
        <time>2014-01-13T13:44:45Z</time>
      </trkpt>
      <trkpt lat="48.00061" lon="-4.25868">
        <ele>146.2578125</ele>
        <time>2014-01-13T13:44:51Z</time>
      </trkpt>
      <trkpt lat="48.00064" lon="-4.25857">
        <ele>147.69970703125</ele>
        <time>2014-01-13T13:44:58Z</time>
      </trkpt>
      <trkpt lat="48.00066" lon="-4.25851">
        <ele>148.66101074219</ele>
        <time>2014-01-13T13:45:02Z</time>
      </trkpt>
      <trkpt lat="48.0007" lon="-4.25842">
        <ele>149.1416015625</ele>
        <time>2014-01-13T13:45:07Z</time>
      </trkpt>
      <trkpt lat="48.00074" lon="-4.25833">
        <ele>148.66101074219</ele>
        <time>2014-01-13T13:45:13Z</time>
      </trkpt>
      <trkpt lat="48.00077" lon="-4.25826">
        <ele>148.18041992188</ele>
        <time>2014-01-13T13:45:17Z</time>
      </trkpt>
      <trkpt lat="48.00078" lon="-4.25823">
        <ele>148.66101074219</ele>
        <time>2014-01-13T13:45:19Z</time>
      </trkpt>
      <trkpt lat="48.00082" lon="-4.25815">
        <ele>148.18041992188</ele>
        <time>2014-01-13T13:45:24Z</time>
      </trkpt>
      <trkpt lat="48.00087" lon="-4.25806">
        <ele>147.69970703125</ele>
        <time>2014-01-13T13:45:30Z</time>
      </trkpt>
      <trkpt lat="48.00088" lon="-4.25805">
        <ele>147.21899414062</ele>
        <time>2014-01-13T13:45:31Z</time>
      </trkpt>
      <trkpt lat="48.00093" lon="-4.25795">
        <ele>145.77709960938</ele>
        <time>2014-01-13T13:45:37Z</time>
      </trkpt>
      <trkpt lat="48.00095" lon="-4.25787">
        <ele>146.2578125</ele>
        <time>2014-01-13T13:45:42Z</time>
      </trkpt>
      <trkpt lat="48.00098" lon="-4.25777">
        <ele>146.2578125</ele>
        <time>2014-01-13T13:45:48Z</time>
      </trkpt>
      <trkpt lat="48.00102" lon="-4.25768">
        <ele>143.85437011719</ele>
        <time>2014-01-13T13:45:54Z</time>
      </trkpt>
      <trkpt lat="48.00103" lon="-4.25767">
        <ele>143.85437011719</ele>
        <time>2014-01-13T13:45:55Z</time>
      </trkpt>
      <trkpt lat="48.00105" lon="-4.2576">
        <ele>142.89306640625</ele>
        <time>2014-01-13T13:45:59Z</time>
      </trkpt>
      <trkpt lat="48.00108" lon="-4.25749">
        <ele>143.85437011719</ele>
        <time>2014-01-13T13:46:05Z</time>
      </trkpt>
      <trkpt lat="48.0011" lon="-4.25746">
        <ele>144.33520507812</ele>
        <time>2014-01-13T13:46:07Z</time>
      </trkpt>
      <trkpt lat="48.00111" lon="-4.25738">
        <ele>143.85437011719</ele>
        <time>2014-01-13T13:46:12Z</time>
      </trkpt>
      <trkpt lat="48.00114" lon="-4.25728">
        <ele>144.33520507812</ele>
        <time>2014-01-13T13:46:17Z</time>
      </trkpt>
      <trkpt lat="48.00117" lon="-4.2572">
        <ele>142.41247558594</ele>
        <time>2014-01-13T13:46:23Z</time>
      </trkpt>
      <trkpt lat="48.00117" lon="-4.2572">
        <ele>142.41247558594</ele>
        <time>2014-01-13T13:46:24Z</time>
      </trkpt>
      <trkpt lat="48.00116" lon="-4.25711">
        <ele>143.37365722656</ele>
        <time>2014-01-13T13:46:30Z</time>
      </trkpt>
      <trkpt lat="48.00117" lon="-4.25709">
        <ele>143.37365722656</ele>
        <time>2014-01-13T13:46:31Z</time>
      </trkpt>
      <trkpt lat="48.00122" lon="-4.25703">
        <ele>143.85437011719</ele>
        <time>2014-01-13T13:46:35Z</time>
      </trkpt>
      <trkpt lat="48.00127" lon="-4.2569">
        <ele>143.85437011719</ele>
        <time>2014-01-13T13:46:42Z</time>
      </trkpt>
      <trkpt lat="48.00131" lon="-4.25677">
        <ele>143.85437011719</ele>
        <time>2014-01-13T13:46:50Z</time>
      </trkpt>
      <trkpt lat="48.00132" lon="-4.25675">
        <ele>143.85437011719</ele>
        <time>2014-01-13T13:46:51Z</time>
      </trkpt>
      <trkpt lat="48.00133" lon="-4.25664">
        <ele>142.41247558594</ele>
        <time>2014-01-13T13:46:57Z</time>
      </trkpt>
      <trkpt lat="48.00133" lon="-4.25662">
        <ele>141.93176269531</ele>
        <time>2014-01-13T13:46:58Z</time>
      </trkpt>
      <trkpt lat="48.00133" lon="-4.25652">
        <ele>140.00915527344</ele>
        <time>2014-01-13T13:47:04Z</time>
      </trkpt>
      <trkpt lat="48.00132" lon="-4.25636">
        <ele>137.12524414062</ele>
        <time>2014-01-13T13:47:13Z</time>
      </trkpt>
      <trkpt lat="48.00132" lon="-4.25623">
        <ele>135.68310546875</ele>
        <time>2014-01-13T13:47:20Z</time>
      </trkpt>
      <trkpt lat="48.00131" lon="-4.25617">
        <ele>135.68310546875</ele>
        <time>2014-01-13T13:47:23Z</time>
      </trkpt>
      <trkpt lat="48.0013" lon="-4.25601">
        <ele>131.837890625</ele>
        <time>2014-01-13T13:47:32Z</time>
      </trkpt>
      <trkpt lat="48.0013" lon="-4.25588">
        <ele>129.91528320312</ele>
        <time>2014-01-13T13:47:39Z</time>
      </trkpt>
      <trkpt lat="48.00129" lon="-4.25583">
        <ele>130.87670898438</ele>
        <time>2014-01-13T13:47:41Z</time>
      </trkpt>
      <trkpt lat="48.00125" lon="-4.25566">
        <ele>133.76049804688</ele>
        <time>2014-01-13T13:47:48Z</time>
      </trkpt>
      <trkpt lat="48.00124" lon="-4.25555">
        <ele>132.79931640625</ele>
        <time>2014-01-13T13:47:53Z</time>
      </trkpt>
      <trkpt lat="48.00124" lon="-4.25548">
        <ele>131.837890625</ele>
        <time>2014-01-13T13:47:57Z</time>
      </trkpt>
      <trkpt lat="48.00122" lon="-4.2554">
        <ele>132.31860351562</ele>
        <time>2014-01-13T13:48:02Z</time>
      </trkpt>
      <trkpt lat="48.00121" lon="-4.25535">
        <ele>132.79931640625</ele>
        <time>2014-01-13T13:48:05Z</time>
      </trkpt>
      <trkpt lat="48.00121" lon="-4.25532">
        <ele>132.79931640625</ele>
        <time>2014-01-13T13:48:07Z</time>
      </trkpt>
      <trkpt lat="48.00121" lon="-4.25523">
        <ele>132.79931640625</ele>
        <time>2014-01-13T13:48:11Z</time>
      </trkpt>
      <trkpt lat="48.00121" lon="-4.25512">
        <ele>133.27990722656</ele>
        <time>2014-01-13T13:48:17Z</time>
      </trkpt>
      <trkpt lat="48.0012" lon="-4.25505">
        <ele>132.79931640625</ele>
        <time>2014-01-13T13:48:21Z</time>
      </trkpt>
      <trkpt lat="48.00118" lon="-4.25494">
        <ele>133.27990722656</ele>
        <time>2014-01-13T13:48:27Z</time>
      </trkpt>
      <trkpt lat="48.00118" lon="-4.2548">
        <ele>133.76049804688</ele>
        <time>2014-01-13T13:48:34Z</time>
      </trkpt>
      <trkpt lat="48.00116" lon="-4.25467">
        <ele>132.31860351562</ele>
        <time>2014-01-13T13:48:41Z</time>
      </trkpt>
      <trkpt lat="48.00114" lon="-4.25459">
        <ele>132.31860351562</ele>
        <time>2014-01-13T13:48:46Z</time>
      </trkpt>
      <trkpt lat="48.00114" lon="-4.25452">
        <ele>131.35729980469</ele>
        <time>2014-01-13T13:48:51Z</time>
      </trkpt>
      <trkpt lat="48.00112" lon="-4.25441">
        <ele>129.91528320312</ele>
        <time>2014-01-13T13:48:58Z</time>
      </trkpt>
      <trkpt lat="48.00111" lon="-4.25432">
        <ele>131.837890625</ele>
        <time>2014-01-13T13:49:03Z</time>
      </trkpt>
      <trkpt lat="48.00112" lon="-4.25429">
        <ele>131.837890625</ele>
        <time>2014-01-13T13:49:07Z</time>
      </trkpt>
      <trkpt lat="48.00114" lon="-4.25426">
        <ele>132.79931640625</ele>
        <time>2014-01-13T13:49:11Z</time>
      </trkpt>
      <trkpt lat="48.00116" lon="-4.25421">
        <ele>133.27990722656</ele>
        <time>2014-01-13T13:49:15Z</time>
      </trkpt>
      <trkpt lat="48.00117" lon="-4.25416">
        <ele>133.27990722656</ele>
        <time>2014-01-13T13:49:19Z</time>
      </trkpt>
      <trkpt lat="48.00117" lon="-4.25412">
        <ele>138.08654785156</ele>
        <time>2014-01-13T13:49:27Z</time>
      </trkpt>
      <trkpt lat="48.00118" lon="-4.25409">
        <ele>138.56726074219</ele>
        <time>2014-01-13T13:49:35Z</time>
      </trkpt>
      <trkpt lat="48.00119" lon="-4.25405">
        <ele>141.93176269531</ele>
        <time>2014-01-13T13:49:47Z</time>
      </trkpt>
      <trkpt lat="48.0012" lon="-4.25403">
        <ele>142.89306640625</ele>
        <time>2014-01-13T13:49:54Z</time>
      </trkpt>
      <trkpt lat="48.00123" lon="-4.25396">
        <ele>141.45104980469</ele>
        <time>2014-01-13T13:50:00Z</time>
      </trkpt>
      <trkpt lat="48.00123" lon="-4.25395">
        <ele>140.97045898438</ele>
        <time>2014-01-13T13:50:01Z</time>
      </trkpt>
      <trkpt lat="48.0012" lon="-4.2539">
        <ele>138.56726074219</ele>
        <time>2014-01-13T13:50:07Z</time>
      </trkpt>
      <trkpt lat="48.00121" lon="-4.25392">
        <ele>136.16394042969</ele>
        <time>2014-01-13T13:50:11Z</time>
      </trkpt>
      <trkpt lat="48.00121" lon="-4.25392">
        <ele>134.72192382812</ele>
        <time>2014-01-13T13:50:13Z</time>
      </trkpt>
      <trkpt lat="48.00121" lon="-4.25392">
        <ele>134.2412109375</ele>
        <time>2014-01-13T13:50:14Z</time>
      </trkpt>
      <trkpt lat="48.00121" lon="-4.25389">
        <ele>129.43469238281</ele>
        <time>2014-01-13T13:50:28Z</time>
      </trkpt>
      <trkpt lat="48.00119" lon="-4.25383">
        <ele>129.43469238281</ele>
        <time>2014-01-13T13:50:32Z</time>
      </trkpt>
      <trkpt lat="48.00117" lon="-4.25373">
        <ele>131.837890625</ele>
        <time>2014-01-13T13:50:38Z</time>
      </trkpt>
      <trkpt lat="48.00114" lon="-4.25359">
        <ele>132.79931640625</ele>
        <time>2014-01-13T13:50:46Z</time>
      </trkpt>
      <trkpt lat="48.0011" lon="-4.25349">
        <ele>132.79931640625</ele>
        <time>2014-01-13T13:50:52Z</time>
      </trkpt>
      <trkpt lat="48.00107" lon="-4.2534">
        <ele>130.87670898438</ele>
        <time>2014-01-13T13:50:58Z</time>
      </trkpt>
      <trkpt lat="48.00104" lon="-4.25331">
        <ele>129.43469238281</ele>
        <time>2014-01-13T13:51:03Z</time>
      </trkpt>
      <trkpt lat="48.00102" lon="-4.25317">
        <ele>127.51196289062</ele>
        <time>2014-01-13T13:51:10Z</time>
      </trkpt>
      <trkpt lat="48.00098" lon="-4.25304">
        <ele>127.03137207031</ele>
        <time>2014-01-13T13:51:17Z</time>
      </trkpt>
      <trkpt lat="48.0009" lon="-4.25284">
        <ele>127.03137207031</ele>
        <time>2014-01-13T13:51:27Z</time>
      </trkpt>
      <trkpt lat="48.00083" lon="-4.25269">
        <ele>127.03137207031</ele>
        <time>2014-01-13T13:51:36Z</time>
      </trkpt>
      <trkpt lat="48.00078" lon="-4.25258">
        <ele>127.03137207031</ele>
        <time>2014-01-13T13:51:43Z</time>
      </trkpt>
      <trkpt lat="48.00071" lon="-4.25245">
        <ele>126.55065917969</ele>
        <time>2014-01-13T13:51:50Z</time>
      </trkpt>
      <trkpt lat="48.00065" lon="-4.25234">
        <ele>126.55065917969</ele>
        <time>2014-01-13T13:51:57Z</time>
      </trkpt>
      <trkpt lat="48.00058" lon="-4.25224">
        <ele>127.51196289062</ele>
        <time>2014-01-13T13:52:04Z</time>
      </trkpt>
      <trkpt lat="48.00053" lon="-4.25215">
        <ele>127.99255371094</ele>
        <time>2014-01-13T13:52:10Z</time>
      </trkpt>
      <trkpt lat="48.00047" lon="-4.25207">
        <ele>128.47338867188</ele>
        <time>2014-01-13T13:52:15Z</time>
      </trkpt>
      <trkpt lat="48.00041" lon="-4.25196">
        <ele>128.47338867188</ele>
        <time>2014-01-13T13:52:23Z</time>
      </trkpt>
      <trkpt lat="48.00037" lon="-4.25188">
        <ele>127.99255371094</ele>
        <time>2014-01-13T13:52:28Z</time>
      </trkpt>
      <trkpt lat="48.00035" lon="-4.25186">
        <ele>127.99255371094</ele>
        <time>2014-01-13T13:52:33Z</time>
      </trkpt>
      <trkpt lat="48.00035" lon="-4.25185">
        <ele>127.99255371094</ele>
        <time>2014-01-13T13:52:36Z</time>
      </trkpt>
      <trkpt lat="48.00026" lon="-4.2517">
        <ele>127.99255371094</ele>
        <time>2014-01-13T13:52:46Z</time>
      </trkpt>
      <trkpt lat="48.00019" lon="-4.25157">
        <ele>127.51196289062</ele>
        <time>2014-01-13T13:52:55Z</time>
      </trkpt>
      <trkpt lat="48.00014" lon="-4.25149">
        <ele>126.06994628906</ele>
        <time>2014-01-13T13:53:01Z</time>
      </trkpt>
      <trkpt lat="48.00008" lon="-4.25136">
        <ele>126.55065917969</ele>
        <time>2014-01-13T13:53:09Z</time>
      </trkpt>
      <trkpt lat="48.00004" lon="-4.25127">
        <ele>126.55065917969</ele>
        <time>2014-01-13T13:53:16Z</time>
      </trkpt>
      <trkpt lat="48.00001" lon="-4.25113">
        <ele>127.03137207031</ele>
        <time>2014-01-13T13:53:23Z</time>
      </trkpt>
      <trkpt lat="48.00001" lon="-4.25111">
        <ele>127.03137207031</ele>
        <time>2014-01-13T13:53:24Z</time>
      </trkpt>
      <trkpt lat="48.00004" lon="-4.25099">
        <ele>126.55065917969</ele>
        <time>2014-01-13T13:53:31Z</time>
      </trkpt>
      <trkpt lat="48.00006" lon="-4.25091">
        <ele>125.58935546875</ele>
        <time>2014-01-13T13:53:35Z</time>
      </trkpt>
      <trkpt lat="48.00005" lon="-4.25083">
        <ele>124.62805175781</ele>
        <time>2014-01-13T13:53:40Z</time>
      </trkpt>
      <trkpt lat="48.00005" lon="-4.25078">
        <ele>123.66674804688</ele>
        <time>2014-01-13T13:53:43Z</time>
      </trkpt>
      <trkpt lat="48.00009" lon="-4.25072">
        <ele>122.70544433594</ele>
        <time>2014-01-13T13:53:47Z</time>
      </trkpt>
      <trkpt lat="48.00012" lon="-4.25066">
        <ele>122.22473144531</ele>
        <time>2014-01-13T13:53:50Z</time>
      </trkpt>
      <trkpt lat="48.00018" lon="-4.25055">
        <ele>122.22473144531</ele>
        <time>2014-01-13T13:53:57Z</time>
      </trkpt>
      <trkpt lat="48.00018" lon="-4.25053">
        <ele>121.744140625</ele>
        <time>2014-01-13T13:53:58Z</time>
      </trkpt>
      <trkpt lat="48.00023" lon="-4.25039">
        <ele>120.78283691406</ele>
        <time>2014-01-13T13:54:06Z</time>
      </trkpt>
      <trkpt lat="48.00029" lon="-4.25029">
        <ele>122.22473144531</ele>
        <time>2014-01-13T13:54:12Z</time>
      </trkpt>
      <trkpt lat="48.00032" lon="-4.25019">
        <ele>121.26354980469</ele>
        <time>2014-01-13T13:54:18Z</time>
      </trkpt>
      <trkpt lat="48.00039" lon="-4.25006">
        <ele>124.14733886719</ele>
        <time>2014-01-13T13:54:26Z</time>
      </trkpt>
      <trkpt lat="48.00045" lon="-4.24997">
        <ele>127.51196289062</ele>
        <time>2014-01-13T13:54:32Z</time>
      </trkpt>
      <trkpt lat="48.00049" lon="-4.24986">
        <ele>125.58935546875</ele>
        <time>2014-01-13T13:54:39Z</time>
      </trkpt>
      <trkpt lat="48.00053" lon="-4.24976">
        <ele>124.14733886719</ele>
        <time>2014-01-13T13:54:45Z</time>
      </trkpt>
      <trkpt lat="48.00053" lon="-4.24973">
        <ele>124.62805175781</ele>
        <time>2014-01-13T13:54:51Z</time>
      </trkpt>
      <trkpt lat="48.00057" lon="-4.24968">
        <ele>124.14733886719</ele>
        <time>2014-01-13T13:54:58Z</time>
      </trkpt>
      <trkpt lat="48.00058" lon="-4.24965">
        <ele>123.18615722656</ele>
        <time>2014-01-13T13:55:00Z</time>
      </trkpt>
      <trkpt lat="48.00064" lon="-4.24961">
        <ele>121.744140625</ele>
        <time>2014-01-13T13:55:06Z</time>
      </trkpt>
      <trkpt lat="48.00073" lon="-4.24957">
        <ele>121.744140625</ele>
        <time>2014-01-13T13:55:13Z</time>
      </trkpt>
      <trkpt lat="48.00075" lon="-4.24955">
        <ele>121.26354980469</ele>
        <time>2014-01-13T13:55:15Z</time>
      </trkpt>
      <trkpt lat="48.00089" lon="-4.24952">
        <ele>125.58935546875</ele>
        <time>2014-01-13T13:55:24Z</time>
      </trkpt>
      <trkpt lat="48.00093" lon="-4.24949">
        <ele>126.55065917969</ele>
        <time>2014-01-13T13:55:27Z</time>
      </trkpt>
      <trkpt lat="48.00101" lon="-4.24942">
        <ele>128.47338867188</ele>
        <time>2014-01-13T13:55:34Z</time>
      </trkpt>
      <trkpt lat="48.00107" lon="-4.24937">
        <ele>131.35729980469</ele>
        <time>2014-01-13T13:55:38Z</time>
      </trkpt>
      <trkpt lat="48.00114" lon="-4.24926">
        <ele>132.31860351562</ele>
        <time>2014-01-13T13:55:45Z</time>
      </trkpt>
      <trkpt lat="48.00121" lon="-4.24914">
        <ele>131.35729980469</ele>
        <time>2014-01-13T13:55:53Z</time>
      </trkpt>
      <trkpt lat="48.00128" lon="-4.24901">
        <ele>130.87670898438</ele>
        <time>2014-01-13T13:56:02Z</time>
      </trkpt>
      <trkpt lat="48.00132" lon="-4.24894">
        <ele>131.35729980469</ele>
        <time>2014-01-13T13:56:07Z</time>
      </trkpt>
      <trkpt lat="48.00132" lon="-4.24893">
        <ele>131.35729980469</ele>
        <time>2014-01-13T13:56:08Z</time>
      </trkpt>
      <trkpt lat="48.00137" lon="-4.24885">
        <ele>130.87670898438</ele>
        <time>2014-01-13T13:56:14Z</time>
      </trkpt>
      <trkpt lat="48.00139" lon="-4.24881">
        <ele>131.35729980469</ele>
        <time>2014-01-13T13:56:20Z</time>
      </trkpt>
      <trkpt lat="48.00139" lon="-4.24872">
        <ele>128.47338867188</ele>
        <time>2014-01-13T13:56:28Z</time>
      </trkpt>
      <trkpt lat="48.0013" lon="-4.24874">
        <ele>127.51196289062</ele>
        <time>2014-01-13T13:56:34Z</time>
      </trkpt>
      <trkpt lat="48.00122" lon="-4.24874">
        <ele>126.55065917969</ele>
        <time>2014-01-13T13:56:40Z</time>
      </trkpt>
      <trkpt lat="48.00115" lon="-4.24875">
        <ele>126.55065917969</ele>
        <time>2014-01-13T13:56:45Z</time>
      </trkpt>
      <trkpt lat="48.00113" lon="-4.24876">
        <ele>126.55065917969</ele>
        <time>2014-01-13T13:56:47Z</time>
      </trkpt>
      <trkpt lat="48.00107" lon="-4.24875">
        <ele>122.22473144531</ele>
        <time>2014-01-13T13:56:55Z</time>
      </trkpt>
      <trkpt lat="48.00104" lon="-4.24874">
        <ele>121.26354980469</ele>
        <time>2014-01-13T13:56:58Z</time>
      </trkpt>
      <trkpt lat="48.00097" lon="-4.24875">
        <ele>122.70544433594</ele>
        <time>2014-01-13T13:57:02Z</time>
      </trkpt>
      <trkpt lat="48.00093" lon="-4.24876">
        <ele>126.06994628906</ele>
        <time>2014-01-13T13:57:06Z</time>
      </trkpt>
      <trkpt lat="48.00083" lon="-4.24873">
        <ele>124.62805175781</ele>
        <time>2014-01-13T13:57:13Z</time>
      </trkpt>
      <trkpt lat="48.00079" lon="-4.24874">
        <ele>123.18615722656</ele>
        <time>2014-01-13T13:57:16Z</time>
      </trkpt>
      <trkpt lat="48.00075" lon="-4.24874">
        <ele>123.18615722656</ele>
        <time>2014-01-13T13:57:21Z</time>
      </trkpt>
      <trkpt lat="48.0007" lon="-4.24874">
        <ele>121.744140625</ele>
        <time>2014-01-13T13:57:25Z</time>
      </trkpt>
      <trkpt lat="48.00064" lon="-4.24871">
        <ele>121.26354980469</ele>
        <time>2014-01-13T13:57:31Z</time>
      </trkpt>
      <trkpt lat="48.00056" lon="-4.24868">
        <ele>119.3408203125</ele>
        <time>2014-01-13T13:57:38Z</time>
      </trkpt>
      <trkpt lat="48.00052" lon="-4.24864">
        <ele>119.3408203125</ele>
        <time>2014-01-13T13:57:42Z</time>
      </trkpt>
      <trkpt lat="48.0005" lon="-4.24854">
        <ele>122.70544433594</ele>
        <time>2014-01-13T13:57:49Z</time>
      </trkpt>
      <trkpt lat="48.00048" lon="-4.24851">
        <ele>123.18615722656</ele>
        <time>2014-01-13T13:57:52Z</time>
      </trkpt>
      <trkpt lat="48.00047" lon="-4.24841">
        <ele>123.18615722656</ele>
        <time>2014-01-13T13:57:59Z</time>
      </trkpt>
      <trkpt lat="48.00048" lon="-4.24833">
        <ele>124.62805175781</ele>
        <time>2014-01-13T13:58:06Z</time>
      </trkpt>
      <trkpt lat="48.00049" lon="-4.24826">
        <ele>125.58935546875</ele>
        <time>2014-01-13T13:58:12Z</time>
      </trkpt>
      <trkpt lat="48.0005" lon="-4.2482">
        <ele>124.14733886719</ele>
        <time>2014-01-13T13:58:18Z</time>
      </trkpt>
      <trkpt lat="48.00051" lon="-4.24815">
        <ele>127.99255371094</ele>
        <time>2014-01-13T13:58:23Z</time>
      </trkpt>
      <trkpt lat="48.00051" lon="-4.24807">
        <ele>132.79931640625</ele>
        <time>2014-01-13T13:58:29Z</time>
      </trkpt>
      <trkpt lat="48.00053" lon="-4.248">
        <ele>134.2412109375</ele>
        <time>2014-01-13T13:58:34Z</time>
      </trkpt>
      <trkpt lat="48.00052" lon="-4.24796">
        <ele>132.31860351562</ele>
        <time>2014-01-13T13:58:42Z</time>
      </trkpt>
      <trkpt lat="48.00052" lon="-4.24789">
        <ele>129.91528320312</ele>
        <time>2014-01-13T13:58:53Z</time>
      </trkpt>
      <trkpt lat="48.00054" lon="-4.24785">
        <ele>130.87670898438</ele>
        <time>2014-01-13T13:58:58Z</time>
      </trkpt>
      <trkpt lat="48.0005" lon="-4.2478">
        <ele>131.837890625</ele>
        <time>2014-01-13T13:59:03Z</time>
      </trkpt>
      <trkpt lat="48.00046" lon="-4.24777">
        <ele>128.9541015625</ele>
        <time>2014-01-13T13:59:08Z</time>
      </trkpt>
      <trkpt lat="48.00046" lon="-4.24776">
        <ele>128.9541015625</ele>
        <time>2014-01-13T13:59:09Z</time>
      </trkpt>
      <trkpt lat="48.00043" lon="-4.24765">
        <ele>127.99255371094</ele>
        <time>2014-01-13T13:59:16Z</time>
      </trkpt>
      <trkpt lat="48.00041" lon="-4.24755">
        <ele>126.55065917969</ele>
        <time>2014-01-13T13:59:21Z</time>
      </trkpt>
      <trkpt lat="48.0004" lon="-4.24752">
        <ele>128.47338867188</ele>
        <time>2014-01-13T13:59:22Z</time>
      </trkpt>
      <trkpt lat="48.00039" lon="-4.24744">
        <ele>127.99255371094</ele>
        <time>2014-01-13T13:59:28Z</time>
      </trkpt>
      <trkpt lat="48.00038" lon="-4.24738">
        <ele>126.55065917969</ele>
        <time>2014-01-13T13:59:33Z</time>
      </trkpt>
      <trkpt lat="48.00037" lon="-4.24732">
        <ele>126.06994628906</ele>
        <time>2014-01-13T13:59:37Z</time>
      </trkpt>
      <trkpt lat="48.00035" lon="-4.24726">
        <ele>125.58935546875</ele>
        <time>2014-01-13T13:59:41Z</time>
      </trkpt>
      <trkpt lat="48.00033" lon="-4.24714">
        <ele>128.47338867188</ele>
        <time>2014-01-13T13:59:47Z</time>
      </trkpt>
      <trkpt lat="48.00034" lon="-4.2471">
        <ele>128.9541015625</ele>
        <time>2014-01-13T13:59:50Z</time>
      </trkpt>
      <trkpt lat="48.0003" lon="-4.24706">
        <ele>127.51196289062</ele>
        <time>2014-01-13T13:59:55Z</time>
      </trkpt>
      <trkpt lat="48.00023" lon="-4.24706">
        <ele>126.06994628906</ele>
        <time>2014-01-13T14:00:00Z</time>
      </trkpt>
      <trkpt lat="48.00017" lon="-4.24708">
        <ele>124.62805175781</ele>
        <time>2014-01-13T14:00:05Z</time>
      </trkpt>
      <trkpt lat="48.00013" lon="-4.24709">
        <ele>125.10876464844</ele>
        <time>2014-01-13T14:00:08Z</time>
      </trkpt>
      <trkpt lat="48.00007" lon="-4.2471">
        <ele>125.58935546875</ele>
        <time>2014-01-13T14:00:13Z</time>
      </trkpt>
      <trkpt lat="48.00001" lon="-4.24719">
        <ele>127.51196289062</ele>
        <time>2014-01-13T14:00:20Z</time>
      </trkpt>
      <trkpt lat="47.99999" lon="-4.24729">
        <ele>127.51196289062</ele>
        <time>2014-01-13T14:00:26Z</time>
      </trkpt>
      <trkpt lat="47.99995" lon="-4.24739">
        <ele>128.47338867188</ele>
        <time>2014-01-13T14:00:32Z</time>
      </trkpt>
      <trkpt lat="47.99994" lon="-4.2475">
        <ele>128.9541015625</ele>
        <time>2014-01-13T14:00:38Z</time>
      </trkpt>
      <trkpt lat="47.99993" lon="-4.24757">
        <ele>129.91528320312</ele>
        <time>2014-01-13T14:00:42Z</time>
      </trkpt>
      <trkpt lat="47.99992" lon="-4.24762">
        <ele>130.39599609375</ele>
        <time>2014-01-13T14:00:45Z</time>
      </trkpt>
      <trkpt lat="47.99991" lon="-4.2477">
        <ele>129.91528320312</ele>
        <time>2014-01-13T14:00:50Z</time>
      </trkpt>
      <trkpt lat="47.99988" lon="-4.24783">
        <ele>130.39599609375</ele>
        <time>2014-01-13T14:00:57Z</time>
      </trkpt>
      <trkpt lat="47.99986" lon="-4.2479">
        <ele>131.837890625</ele>
        <time>2014-01-13T14:01:01Z</time>
      </trkpt>
      <trkpt lat="47.99983" lon="-4.24795">
        <ele>131.837890625</ele>
        <time>2014-01-13T14:01:05Z</time>
      </trkpt>
      <trkpt lat="47.99982" lon="-4.24806">
        <ele>131.35729980469</ele>
        <time>2014-01-13T14:01:10Z</time>
      </trkpt>
      <trkpt lat="47.99981" lon="-4.2481">
        <ele>130.87670898438</ele>
        <time>2014-01-13T14:01:12Z</time>
      </trkpt>
      <trkpt lat="47.9998" lon="-4.24814">
        <ele>131.837890625</ele>
        <time>2014-01-13T14:01:15Z</time>
      </trkpt>
      <trkpt lat="47.99977" lon="-4.24826">
        <ele>130.87670898438</ele>
        <time>2014-01-13T14:01:21Z</time>
      </trkpt>
      <trkpt lat="47.99974" lon="-4.24834">
        <ele>130.39599609375</ele>
        <time>2014-01-13T14:01:26Z</time>
      </trkpt>
      <trkpt lat="47.99967" lon="-4.24851">
        <ele>129.91528320312</ele>
        <time>2014-01-13T14:01:35Z</time>
      </trkpt>
      <trkpt lat="47.99964" lon="-4.24857">
        <ele>130.87670898438</ele>
        <time>2014-01-13T14:01:40Z</time>
      </trkpt>
      <trkpt lat="47.99962" lon="-4.24861">
        <ele>130.87670898438</ele>
        <time>2014-01-13T14:01:42Z</time>
      </trkpt>
      <trkpt lat="47.99956" lon="-4.2487">
        <ele>130.39599609375</ele>
        <time>2014-01-13T14:01:49Z</time>
      </trkpt>
      <trkpt lat="47.99953" lon="-4.2488">
        <ele>131.837890625</ele>
        <time>2014-01-13T14:01:55Z</time>
      </trkpt>
      <trkpt lat="47.9995" lon="-4.24885">
        <ele>131.837890625</ele>
        <time>2014-01-13T14:02:01Z</time>
      </trkpt>
      <trkpt lat="47.99945" lon="-4.24888">
        <ele>133.76049804688</ele>
        <time>2014-01-13T14:02:07Z</time>
      </trkpt>
      <trkpt lat="47.9994" lon="-4.24891">
        <ele>133.27990722656</ele>
        <time>2014-01-13T14:02:13Z</time>
      </trkpt>
      <trkpt lat="47.99937" lon="-4.24893">
        <ele>132.79931640625</ele>
        <time>2014-01-13T14:02:17Z</time>
      </trkpt>
      <trkpt lat="47.99936" lon="-4.24894">
        <ele>132.79931640625</ele>
        <time>2014-01-13T14:02:18Z</time>
      </trkpt>
      <trkpt lat="47.99933" lon="-4.24895">
        <ele>132.31860351562</ele>
        <time>2014-01-13T14:02:20Z</time>
      </trkpt>
      <trkpt lat="47.99925" lon="-4.24896">
        <ele>126.55065917969</ele>
        <time>2014-01-13T14:02:27Z</time>
      </trkpt>
      <trkpt lat="47.99923" lon="-4.24897">
        <ele>125.58935546875</ele>
        <time>2014-01-13T14:02:29Z</time>
      </trkpt>
      <trkpt lat="47.99918" lon="-4.24896">
        <ele>125.58935546875</ele>
        <time>2014-01-13T14:02:35Z</time>
      </trkpt>
      <trkpt lat="47.99914" lon="-4.24897">
        <ele>125.10876464844</ele>
        <time>2014-01-13T14:02:39Z</time>
      </trkpt>
      <trkpt lat="47.99908" lon="-4.24896">
        <ele>123.18615722656</ele>
        <time>2014-01-13T14:02:46Z</time>
      </trkpt>
      <trkpt lat="47.99902" lon="-4.24893">
        <ele>124.14733886719</ele>
        <time>2014-01-13T14:02:52Z</time>
      </trkpt>
      <trkpt lat="47.99895" lon="-4.24892">
        <ele>127.51196289062</ele>
        <time>2014-01-13T14:02:59Z</time>
      </trkpt>
      <trkpt lat="47.99889" lon="-4.24892">
        <ele>129.91528320312</ele>
        <time>2014-01-13T14:03:04Z</time>
      </trkpt>
      <trkpt lat="47.99882" lon="-4.24893">
        <ele>130.39599609375</ele>
        <time>2014-01-13T14:03:11Z</time>
      </trkpt>
      <trkpt lat="47.99879" lon="-4.24895">
        <ele>132.31860351562</ele>
        <time>2014-01-13T14:03:15Z</time>
      </trkpt>
      <trkpt lat="47.99872" lon="-4.24896">
        <ele>133.27990722656</ele>
        <time>2014-01-13T14:03:22Z</time>
      </trkpt>
      <trkpt lat="47.99865" lon="-4.24901">
        <ele>136.64465332031</ele>
        <time>2014-01-13T14:03:29Z</time>
      </trkpt>
      <trkpt lat="47.99859" lon="-4.24906">
        <ele>140.48986816406</ele>
        <time>2014-01-13T14:03:37Z</time>
      </trkpt>
      <trkpt lat="47.99852" lon="-4.24912">
        <ele>141.45104980469</ele>
        <time>2014-01-13T14:03:44Z</time>
      </trkpt>
      <trkpt lat="47.99848" lon="-4.24915">
        <ele>140.48986816406</ele>
        <time>2014-01-13T14:03:48Z</time>
      </trkpt>
      <trkpt lat="47.99841" lon="-4.24921">
        <ele>142.41247558594</ele>
        <time>2014-01-13T14:03:55Z</time>
      </trkpt>
      <trkpt lat="47.99837" lon="-4.24925">
        <ele>140.97045898438</ele>
        <time>2014-01-13T14:04:01Z</time>
      </trkpt>
      <trkpt lat="47.99831" lon="-4.24928">
        <ele>141.93176269531</ele>
        <time>2014-01-13T14:04:07Z</time>
      </trkpt>
      <trkpt lat="47.99824" lon="-4.24928">
        <ele>141.45104980469</ele>
        <time>2014-01-13T14:04:13Z</time>
      </trkpt>
      <trkpt lat="47.99816" lon="-4.24927">
        <ele>141.45104980469</ele>
        <time>2014-01-13T14:04:19Z</time>
      </trkpt>
      <trkpt lat="47.99808" lon="-4.24931">
        <ele>142.89306640625</ele>
        <time>2014-01-13T14:04:26Z</time>
      </trkpt>
      <trkpt lat="47.99804" lon="-4.24934">
        <ele>142.89306640625</ele>
        <time>2014-01-13T14:04:30Z</time>
      </trkpt>
      <trkpt lat="47.99798" lon="-4.24941">
        <ele>141.45104980469</ele>
        <time>2014-01-13T14:04:37Z</time>
      </trkpt>
      <trkpt lat="47.99793" lon="-4.24947">
        <ele>141.93176269531</ele>
        <time>2014-01-13T14:04:43Z</time>
      </trkpt>
      <trkpt lat="47.99785" lon="-4.24952">
        <ele>140.97045898438</ele>
        <time>2014-01-13T14:04:50Z</time>
      </trkpt>
      <trkpt lat="47.99776" lon="-4.24958">
        <ele>141.45104980469</ele>
        <time>2014-01-13T14:04:58Z</time>
      </trkpt>
      <trkpt lat="47.9977" lon="-4.24963">
        <ele>140.48986816406</ele>
        <time>2014-01-13T14:05:05Z</time>
      </trkpt>
      <trkpt lat="47.99761" lon="-4.24968">
        <ele>140.48986816406</ele>
        <time>2014-01-13T14:05:13Z</time>
      </trkpt>
      <trkpt lat="47.99755" lon="-4.24972">
        <ele>140.48986816406</ele>
        <time>2014-01-13T14:05:18Z</time>
      </trkpt>
      <trkpt lat="47.99749" lon="-4.24978">
        <ele>138.08654785156</ele>
        <time>2014-01-13T14:05:26Z</time>
      </trkpt>
      <trkpt lat="47.99741" lon="-4.24982">
        <ele>139.0478515625</ele>
        <time>2014-01-13T14:05:33Z</time>
      </trkpt>
      <trkpt lat="47.99732" lon="-4.24985">
        <ele>143.37365722656</ele>
        <time>2014-01-13T14:05:40Z</time>
      </trkpt>
      <trkpt lat="47.99726" lon="-4.24989">
        <ele>143.85437011719</ele>
        <time>2014-01-13T14:05:46Z</time>
      </trkpt>
      <trkpt lat="47.99722" lon="-4.2499">
        <ele>145.29638671875</ele>
        <time>2014-01-13T14:05:53Z</time>
      </trkpt>
      <trkpt lat="47.99713" lon="-4.24997">
        <ele>142.41247558594</ele>
        <time>2014-01-13T14:06:01Z</time>
      </trkpt>
      <trkpt lat="47.99705" lon="-4.25001">
        <ele>144.33520507812</ele>
        <time>2014-01-13T14:06:07Z</time>
      </trkpt>
      <trkpt lat="47.99693" lon="-4.25007">
        <ele>144.81579589844</ele>
        <time>2014-01-13T14:06:16Z</time>
      </trkpt>
      <trkpt lat="47.99684" lon="-4.25011">
        <ele>144.33520507812</ele>
        <time>2014-01-13T14:06:24Z</time>
      </trkpt>
      <trkpt lat="47.99675" lon="-4.2502">
        <ele>143.85437011719</ele>
        <time>2014-01-13T14:06:32Z</time>
      </trkpt>
      <trkpt lat="47.99665" lon="-4.25031">
        <ele>143.85437011719</ele>
        <time>2014-01-13T14:06:41Z</time>
      </trkpt>
      <trkpt lat="47.99661" lon="-4.25038">
        <ele>142.89306640625</ele>
        <time>2014-01-13T14:06:46Z</time>
      </trkpt>
      <trkpt lat="47.99651" lon="-4.25051">
        <ele>142.89306640625</ele>
        <time>2014-01-13T14:06:56Z</time>
      </trkpt>
      <trkpt lat="47.99642" lon="-4.25062">
        <ele>142.89306640625</ele>
        <time>2014-01-13T14:07:05Z</time>
      </trkpt>
      <trkpt lat="47.99635" lon="-4.25072">
        <ele>144.33520507812</ele>
        <time>2014-01-13T14:07:13Z</time>
      </trkpt>
      <trkpt lat="47.99625" lon="-4.25083">
        <ele>144.81579589844</ele>
        <time>2014-01-13T14:07:22Z</time>
      </trkpt>
      <trkpt lat="47.99617" lon="-4.25093">
        <ele>145.77709960938</ele>
        <time>2014-01-13T14:07:30Z</time>
      </trkpt>
      <trkpt lat="47.99609" lon="-4.25106">
        <ele>145.77709960938</ele>
        <time>2014-01-13T14:07:38Z</time>
      </trkpt>
      <trkpt lat="47.99605" lon="-4.25113">
        <ele>145.29638671875</ele>
        <time>2014-01-13T14:07:43Z</time>
      </trkpt>
      <trkpt lat="47.99596" lon="-4.25125">
        <ele>145.77709960938</ele>
        <time>2014-01-13T14:07:52Z</time>
      </trkpt>
      <trkpt lat="47.99588" lon="-4.25134">
        <ele>146.2578125</ele>
        <time>2014-01-13T14:07:59Z</time>
      </trkpt>
      <trkpt lat="47.99579" lon="-4.25145">
        <ele>145.77709960938</ele>
        <time>2014-01-13T14:08:08Z</time>
      </trkpt>
      <trkpt lat="47.99571" lon="-4.25158">
        <ele>145.77709960938</ele>
        <time>2014-01-13T14:08:17Z</time>
      </trkpt>
      <trkpt lat="47.99565" lon="-4.25173">
        <ele>145.77709960938</ele>
        <time>2014-01-13T14:08:26Z</time>
      </trkpt>
      <trkpt lat="47.99561" lon="-4.25168">
        <ele>146.2578125</ele>
        <time>2014-01-13T14:08:31Z</time>
      </trkpt>
      <trkpt lat="47.99556" lon="-4.25152">
        <ele>145.77709960938</ele>
        <time>2014-01-13T14:08:40Z</time>
      </trkpt>
      <trkpt lat="47.99552" lon="-4.25138">
        <ele>143.85437011719</ele>
        <time>2014-01-13T14:08:48Z</time>
      </trkpt>
      <trkpt lat="47.99548" lon="-4.25128">
        <ele>143.85437011719</ele>
        <time>2014-01-13T14:08:54Z</time>
      </trkpt>
      <trkpt lat="47.99543" lon="-4.25112">
        <ele>143.85437011719</ele>
        <time>2014-01-13T14:09:02Z</time>
      </trkpt>
      <trkpt lat="47.99539" lon="-4.251">
        <ele>143.85437011719</ele>
        <time>2014-01-13T14:09:09Z</time>
      </trkpt>
      <trkpt lat="47.99537" lon="-4.25085">
        <ele>143.37365722656</ele>
        <time>2014-01-13T14:09:17Z</time>
      </trkpt>
      <trkpt lat="47.99534" lon="-4.25073">
        <ele>144.33520507812</ele>
        <time>2014-01-13T14:09:23Z</time>
      </trkpt>
      <trkpt lat="47.99533" lon="-4.25062">
        <ele>144.33520507812</ele>
        <time>2014-01-13T14:09:30Z</time>
      </trkpt>
      <trkpt lat="47.99531" lon="-4.2505">
        <ele>143.37365722656</ele>
        <time>2014-01-13T14:09:38Z</time>
      </trkpt>
      <trkpt lat="47.9953" lon="-4.25047">
        <ele>143.37365722656</ele>
        <time>2014-01-13T14:09:44Z</time>
      </trkpt>
      <trkpt lat="47.99529" lon="-4.25045">
        <ele>143.37365722656</ele>
        <time>2014-01-13T14:09:54Z</time>
      </trkpt>
      <trkpt lat="47.99529" lon="-4.25043">
        <ele>143.37365722656</ele>
        <time>2014-01-13T14:10:02Z</time>
      </trkpt>
      <trkpt lat="47.99529" lon="-4.25042">
        <ele>143.85437011719</ele>
        <time>2014-01-13T14:10:11Z</time>
      </trkpt>
      <trkpt lat="47.99528" lon="-4.2504">
        <ele>142.89306640625</ele>
        <time>2014-01-13T14:10:52Z</time>
      </trkpt>
      <trkpt lat="47.99527" lon="-4.25034">
        <ele>142.41247558594</ele>
        <time>2014-01-13T14:11:00Z</time>
      </trkpt>
      <trkpt lat="47.99527" lon="-4.25032">
        <ele>142.41247558594</ele>
        <time>2014-01-13T14:11:01Z</time>
      </trkpt>
      <trkpt lat="47.99527" lon="-4.25025">
        <ele>142.41247558594</ele>
        <time>2014-01-13T14:11:05Z</time>
      </trkpt>
      <trkpt lat="47.99525" lon="-4.25017">
        <ele>142.89306640625</ele>
        <time>2014-01-13T14:11:10Z</time>
      </trkpt>
      <trkpt lat="47.99522" lon="-4.25007">
        <ele>143.37365722656</ele>
        <time>2014-01-13T14:11:15Z</time>
      </trkpt>
      <trkpt lat="47.99517" lon="-4.24994">
        <ele>143.85437011719</ele>
        <time>2014-01-13T14:11:22Z</time>
      </trkpt>
      <trkpt lat="47.99507" lon="-4.24986">
        <ele>143.85437011719</ele>
        <time>2014-01-13T14:11:30Z</time>
      </trkpt>
      <trkpt lat="47.99496" lon="-4.24984">
        <ele>142.89306640625</ele>
        <time>2014-01-13T14:11:38Z</time>
      </trkpt>
      <trkpt lat="47.99485" lon="-4.24981">
        <ele>142.41247558594</ele>
        <time>2014-01-13T14:11:46Z</time>
      </trkpt>
      <trkpt lat="47.99471" lon="-4.24977">
        <ele>141.45104980469</ele>
        <time>2014-01-13T14:11:57Z</time>
      </trkpt>
      <trkpt lat="47.99464" lon="-4.24983">
        <ele>142.89306640625</ele>
        <time>2014-01-13T14:12:04Z</time>
      </trkpt>
      <trkpt lat="47.99463" lon="-4.24987">
        <ele>142.89306640625</ele>
        <time>2014-01-13T14:12:06Z</time>
      </trkpt>
      <trkpt lat="47.99462" lon="-4.24991">
        <ele>143.37365722656</ele>
        <time>2014-01-13T14:12:12Z</time>
      </trkpt>
      <trkpt lat="47.99458" lon="-4.25002">
        <ele>143.85437011719</ele>
        <time>2014-01-13T14:12:19Z</time>
      </trkpt>
      <trkpt lat="47.99454" lon="-4.25012">
        <ele>144.33520507812</ele>
        <time>2014-01-13T14:12:24Z</time>
      </trkpt>
      <trkpt lat="47.99452" lon="-4.25024">
        <ele>143.85437011719</ele>
        <time>2014-01-13T14:12:31Z</time>
      </trkpt>
      <trkpt lat="47.99449" lon="-4.25038">
        <ele>143.37365722656</ele>
        <time>2014-01-13T14:12:39Z</time>
      </trkpt>
      <trkpt lat="47.99447" lon="-4.25047">
        <ele>142.41247558594</ele>
        <time>2014-01-13T14:12:44Z</time>
      </trkpt>
      <trkpt lat="47.99443" lon="-4.2506">
        <ele>142.89306640625</ele>
        <time>2014-01-13T14:12:52Z</time>
      </trkpt>
      <trkpt lat="47.99439" lon="-4.25073">
        <ele>141.93176269531</ele>
        <time>2014-01-13T14:12:59Z</time>
      </trkpt>
      <trkpt lat="47.99434" lon="-4.25089">
        <ele>141.93176269531</ele>
        <time>2014-01-13T14:13:07Z</time>
      </trkpt>
      <trkpt lat="47.99431" lon="-4.25103">
        <ele>140.97045898438</ele>
        <time>2014-01-13T14:13:14Z</time>
      </trkpt>
      <trkpt lat="47.99426" lon="-4.25117">
        <ele>140.48986816406</ele>
        <time>2014-01-13T14:13:22Z</time>
      </trkpt>
      <trkpt lat="47.99424" lon="-4.25125">
        <ele>140.97045898438</ele>
        <time>2014-01-13T14:13:27Z</time>
      </trkpt>
      <trkpt lat="47.99421" lon="-4.25132">
        <ele>141.45104980469</ele>
        <time>2014-01-13T14:13:31Z</time>
      </trkpt>
      <trkpt lat="47.99417" lon="-4.25143">
        <ele>141.45104980469</ele>
        <time>2014-01-13T14:13:38Z</time>
      </trkpt>
      <trkpt lat="47.99417" lon="-4.25147">
        <ele>141.93176269531</ele>
        <time>2014-01-13T14:13:40Z</time>
      </trkpt>
      <trkpt lat="47.99415" lon="-4.25153">
        <ele>140.97045898438</ele>
        <time>2014-01-13T14:13:46Z</time>
      </trkpt>
      <trkpt lat="47.99411" lon="-4.25166">
        <ele>143.37365722656</ele>
        <time>2014-01-13T14:13:52Z</time>
      </trkpt>
      <trkpt lat="47.99407" lon="-4.2518">
        <ele>143.85437011719</ele>
        <time>2014-01-13T14:13:59Z</time>
      </trkpt>
      <trkpt lat="47.99405" lon="-4.25184">
        <ele>144.33520507812</ele>
        <time>2014-01-13T14:14:01Z</time>
      </trkpt>
      <trkpt lat="47.99403" lon="-4.25192">
        <ele>143.37365722656</ele>
        <time>2014-01-13T14:14:06Z</time>
      </trkpt>
      <trkpt lat="47.99399" lon="-4.25203">
        <ele>145.29638671875</ele>
        <time>2014-01-13T14:14:13Z</time>
      </trkpt>
      <trkpt lat="47.99396" lon="-4.25212">
        <ele>145.77709960938</ele>
        <time>2014-01-13T14:14:18Z</time>
      </trkpt>
      <trkpt lat="47.99393" lon="-4.25222">
        <ele>144.33520507812</ele>
        <time>2014-01-13T14:14:24Z</time>
      </trkpt>
      <trkpt lat="47.99388" lon="-4.25234">
        <ele>143.37365722656</ele>
        <time>2014-01-13T14:14:31Z</time>
      </trkpt>
      <trkpt lat="47.99386" lon="-4.25242">
        <ele>143.37365722656</ele>
        <time>2014-01-13T14:14:36Z</time>
      </trkpt>
      <trkpt lat="47.99382" lon="-4.25256">
        <ele>142.41247558594</ele>
        <time>2014-01-13T14:14:44Z</time>
      </trkpt>
      <trkpt lat="47.99381" lon="-4.25266">
        <ele>141.45104980469</ele>
        <time>2014-01-13T14:14:50Z</time>
      </trkpt>
      <trkpt lat="47.99381" lon="-4.25267">
        <ele>141.45104980469</ele>
        <time>2014-01-13T14:14:51Z</time>
      </trkpt>
      <trkpt lat="47.99381" lon="-4.25272">
        <ele>139.52844238281</ele>
        <time>2014-01-13T14:14:54Z</time>
      </trkpt>
      <trkpt lat="47.99381" lon="-4.25282">
        <ele>136.64465332031</ele>
        <time>2014-01-13T14:15:01Z</time>
      </trkpt>
      <trkpt lat="47.9938" lon="-4.25295">
        <ele>134.72192382812</ele>
        <time>2014-01-13T14:15:08Z</time>
      </trkpt>
      <trkpt lat="47.99378" lon="-4.25309">
        <ele>133.76049804688</ele>
        <time>2014-01-13T14:15:15Z</time>
      </trkpt>
      <trkpt lat="47.99377" lon="-4.25315">
        <ele>133.27990722656</ele>
        <time>2014-01-13T14:15:18Z</time>
      </trkpt>
      <trkpt lat="47.99373" lon="-4.2533">
        <ele>133.27990722656</ele>
        <time>2014-01-13T14:15:26Z</time>
      </trkpt>
      <trkpt lat="47.99372" lon="-4.25334">
        <ele>133.27990722656</ele>
        <time>2014-01-13T14:15:28Z</time>
      </trkpt>
      <trkpt lat="47.99371" lon="-4.25347">
        <ele>132.79931640625</ele>
        <time>2014-01-13T14:15:36Z</time>
      </trkpt>
      <trkpt lat="47.9937" lon="-4.25352">
        <ele>133.27990722656</ele>
        <time>2014-01-13T14:15:38Z</time>
      </trkpt>
      <trkpt lat="47.99367" lon="-4.25363">
        <ele>134.2412109375</ele>
        <time>2014-01-13T14:15:44Z</time>
      </trkpt>
      <trkpt lat="47.99366" lon="-4.25367">
        <ele>134.2412109375</ele>
        <time>2014-01-13T14:15:46Z</time>
      </trkpt>
      <trkpt lat="47.99365" lon="-4.25371">
        <ele>133.76049804688</ele>
        <time>2014-01-13T14:15:49Z</time>
      </trkpt>
      <trkpt lat="47.99363" lon="-4.25382">
        <ele>133.76049804688</ele>
        <time>2014-01-13T14:15:55Z</time>
      </trkpt>
      <trkpt lat="47.9936" lon="-4.2539">
        <ele>134.2412109375</ele>
        <time>2014-01-13T14:15:59Z</time>
      </trkpt>
      <trkpt lat="47.99356" lon="-4.25407">
        <ele>133.76049804688</ele>
        <time>2014-01-13T14:16:08Z</time>
      </trkpt>
      <trkpt lat="47.99356" lon="-4.25414">
        <ele>133.27990722656</ele>
        <time>2014-01-13T14:16:12Z</time>
      </trkpt>
      <trkpt lat="47.99353" lon="-4.25425">
        <ele>134.72192382812</ele>
        <time>2014-01-13T14:16:17Z</time>
      </trkpt>
      <trkpt lat="47.99351" lon="-4.25438">
        <ele>135.20251464844</ele>
        <time>2014-01-13T14:16:23Z</time>
      </trkpt>
      <trkpt lat="47.9935" lon="-4.25449">
        <ele>135.20251464844</ele>
        <time>2014-01-13T14:16:29Z</time>
      </trkpt>
      <trkpt lat="47.9935" lon="-4.25451">
        <ele>135.20251464844</ele>
        <time>2014-01-13T14:16:30Z</time>
      </trkpt>
      <trkpt lat="47.99349" lon="-4.25464">
        <ele>135.20251464844</ele>
        <time>2014-01-13T14:16:37Z</time>
      </trkpt>
      <trkpt lat="47.99348" lon="-4.25477">
        <ele>135.68310546875</ele>
        <time>2014-01-13T14:16:43Z</time>
      </trkpt>
      <trkpt lat="47.99346" lon="-4.25488">
        <ele>135.68310546875</ele>
        <time>2014-01-13T14:16:49Z</time>
      </trkpt>
      <trkpt lat="47.99345" lon="-4.25505">
        <ele>136.64465332031</ele>
        <time>2014-01-13T14:16:58Z</time>
      </trkpt>
      <trkpt lat="47.99344" lon="-4.25516">
        <ele>135.68310546875</ele>
        <time>2014-01-13T14:17:04Z</time>
      </trkpt>
      <trkpt lat="47.99344" lon="-4.25527">
        <ele>134.72192382812</ele>
        <time>2014-01-13T14:17:10Z</time>
      </trkpt>
      <trkpt lat="47.99343" lon="-4.25542">
        <ele>135.20251464844</ele>
        <time>2014-01-13T14:17:18Z</time>
      </trkpt>
      <trkpt lat="47.99342" lon="-4.25554">
        <ele>136.16394042969</ele>
        <time>2014-01-13T14:17:24Z</time>
      </trkpt>
      <trkpt lat="47.99344" lon="-4.25564">
        <ele>133.27990722656</ele>
        <time>2014-01-13T14:17:31Z</time>
      </trkpt>
      <trkpt lat="47.99344" lon="-4.25568">
        <ele>132.31860351562</ele>
        <time>2014-01-13T14:17:33Z</time>
      </trkpt>
      <trkpt lat="47.99344" lon="-4.25574">
        <ele>130.39599609375</ele>
        <time>2014-01-13T14:17:37Z</time>
      </trkpt>
      <trkpt lat="47.99343" lon="-4.25583">
        <ele>130.39599609375</ele>
        <time>2014-01-13T14:17:42Z</time>
      </trkpt>
      <trkpt lat="47.99343" lon="-4.2559">
        <ele>128.9541015625</ele>
        <time>2014-01-13T14:17:46Z</time>
      </trkpt>
      <trkpt lat="47.99343" lon="-4.25599">
        <ele>127.99255371094</ele>
        <time>2014-01-13T14:17:51Z</time>
      </trkpt>
      <trkpt lat="47.99344" lon="-4.25608">
        <ele>127.03137207031</ele>
        <time>2014-01-13T14:17:57Z</time>
      </trkpt>
      <trkpt lat="47.99344" lon="-4.25612">
        <ele>126.55065917969</ele>
        <time>2014-01-13T14:17:59Z</time>
      </trkpt>
      <trkpt lat="47.99344" lon="-4.25617">
        <ele>126.55065917969</ele>
        <time>2014-01-13T14:18:01Z</time>
      </trkpt>
      <trkpt lat="47.99342" lon="-4.25634">
        <ele>130.39599609375</ele>
        <time>2014-01-13T14:18:08Z</time>
      </trkpt>
      <trkpt lat="47.99341" lon="-4.25637">
        <ele>129.91528320312</ele>
        <time>2014-01-13T14:18:10Z</time>
      </trkpt>
      <trkpt lat="47.9934" lon="-4.2565">
        <ele>126.55065917969</ele>
        <time>2014-01-13T14:18:18Z</time>
      </trkpt>
      <trkpt lat="47.9934" lon="-4.25655">
        <ele>126.06994628906</ele>
        <time>2014-01-13T14:18:20Z</time>
      </trkpt>
      <trkpt lat="47.9934" lon="-4.25661">
        <ele>123.66674804688</ele>
        <time>2014-01-13T14:18:23Z</time>
      </trkpt>
      <trkpt lat="47.9934" lon="-4.25668">
        <ele>120.78283691406</ele>
        <time>2014-01-13T14:18:28Z</time>
      </trkpt>
      <trkpt lat="47.99339" lon="-4.25674">
        <ele>120.78283691406</ele>
        <time>2014-01-13T14:18:31Z</time>
      </trkpt>
      <trkpt lat="47.99338" lon="-4.25683">
        <ele>119.3408203125</ele>
        <time>2014-01-13T14:18:37Z</time>
      </trkpt>
      <trkpt lat="47.99341" lon="-4.25692">
        <ele>119.82141113281</ele>
        <time>2014-01-13T14:18:42Z</time>
      </trkpt>
      <trkpt lat="47.99341" lon="-4.25702">
        <ele>114.5341796875</ele>
        <time>2014-01-13T14:18:48Z</time>
      </trkpt>
      <trkpt lat="47.99343" lon="-4.25715">
        <ele>115.97619628906</ele>
        <time>2014-01-13T14:18:55Z</time>
      </trkpt>
      <trkpt lat="47.99343" lon="-4.25726">
        <ele>117.41821289062</ele>
        <time>2014-01-13T14:19:00Z</time>
      </trkpt>
      <trkpt lat="47.99344" lon="-4.25735">
        <ele>118.37939453125</ele>
        <time>2014-01-13T14:19:04Z</time>
      </trkpt>
      <trkpt lat="47.99344" lon="-4.2574">
        <ele>116.9375</ele>
        <time>2014-01-13T14:19:07Z</time>
      </trkpt>
      <trkpt lat="47.99344" lon="-4.25743">
        <ele>117.89880371094</ele>
        <time>2014-01-13T14:19:09Z</time>
      </trkpt>
      <trkpt lat="47.99341" lon="-4.25762">
        <ele>119.3408203125</ele>
        <time>2014-01-13T14:19:16Z</time>
      </trkpt>
      <trkpt lat="47.99341" lon="-4.25763">
        <ele>118.86010742188</ele>
        <time>2014-01-13T14:19:17Z</time>
      </trkpt>
      <trkpt lat="47.99341" lon="-4.2578">
        <ele>121.26354980469</ele>
        <time>2014-01-13T14:19:25Z</time>
      </trkpt>
      <trkpt lat="47.99342" lon="-4.25785">
        <ele>121.26354980469</ele>
        <time>2014-01-13T14:19:27Z</time>
      </trkpt>
      <trkpt lat="47.99342" lon="-4.25793">
        <ele>119.82141113281</ele>
        <time>2014-01-13T14:19:31Z</time>
      </trkpt>
      <trkpt lat="47.99343" lon="-4.25808">
        <ele>122.70544433594</ele>
        <time>2014-01-13T14:19:37Z</time>
      </trkpt>
      <trkpt lat="47.99344" lon="-4.25813">
        <ele>122.70544433594</ele>
        <time>2014-01-13T14:19:39Z</time>
      </trkpt>
      <trkpt lat="47.99348" lon="-4.25829">
        <ele>120.78283691406</ele>
        <time>2014-01-13T14:19:47Z</time>
      </trkpt>
      <trkpt lat="47.99349" lon="-4.25831">
        <ele>120.30212402344</ele>
        <time>2014-01-13T14:19:48Z</time>
      </trkpt>
      <trkpt lat="47.99351" lon="-4.25837">
        <ele>120.78283691406</ele>
        <time>2014-01-13T14:19:52Z</time>
      </trkpt>
      <trkpt lat="47.9935" lon="-4.25845">
        <ele>120.78283691406</ele>
        <time>2014-01-13T14:19:57Z</time>
      </trkpt>
      <trkpt lat="47.9935" lon="-4.25849">
        <ele>120.78283691406</ele>
        <time>2014-01-13T14:19:59Z</time>
      </trkpt>
      <trkpt lat="47.99351" lon="-4.25861">
        <ele>121.26354980469</ele>
        <time>2014-01-13T14:20:05Z</time>
      </trkpt>
      <trkpt lat="47.9935" lon="-4.25874">
        <ele>121.744140625</ele>
        <time>2014-01-13T14:20:11Z</time>
      </trkpt>
      <trkpt lat="47.9935" lon="-4.2589">
        <ele>123.18615722656</ele>
        <time>2014-01-13T14:20:18Z</time>
      </trkpt>
      <trkpt lat="47.9935" lon="-4.25903">
        <ele>123.66674804688</ele>
        <time>2014-01-13T14:20:24Z</time>
      </trkpt>
      <trkpt lat="47.9935" lon="-4.25923">
        <ele>122.22473144531</ele>
        <time>2014-01-13T14:20:34Z</time>
      </trkpt>
      <trkpt lat="47.9935" lon="-4.25929">
        <ele>122.22473144531</ele>
        <time>2014-01-13T14:20:38Z</time>
      </trkpt>
      <trkpt lat="47.9935" lon="-4.25941">
        <ele>122.22473144531</ele>
        <time>2014-01-13T14:20:45Z</time>
      </trkpt>
      <trkpt lat="47.9935" lon="-4.25953">
        <ele>122.70544433594</ele>
        <time>2014-01-13T14:20:51Z</time>
      </trkpt>
      <trkpt lat="47.99351" lon="-4.25966">
        <ele>124.14733886719</ele>
        <time>2014-01-13T14:20:58Z</time>
      </trkpt>
      <trkpt lat="47.99352" lon="-4.25969">
        <ele>124.14733886719</ele>
        <time>2014-01-13T14:21:00Z</time>
      </trkpt>
      <trkpt lat="47.99352" lon="-4.25982">
        <ele>125.10876464844</ele>
        <time>2014-01-13T14:21:07Z</time>
      </trkpt>
      <trkpt lat="47.9935" lon="-4.25998">
        <ele>123.66674804688</ele>
        <time>2014-01-13T14:21:14Z</time>
      </trkpt>
      <trkpt lat="47.9935" lon="-4.26003">
        <ele>123.66674804688</ele>
        <time>2014-01-13T14:21:17Z</time>
      </trkpt>
      <trkpt lat="47.99349" lon="-4.26011">
        <ele>123.66674804688</ele>
        <time>2014-01-13T14:21:24Z</time>
      </trkpt>
      <trkpt lat="47.99347" lon="-4.2603">
        <ele>123.66674804688</ele>
        <time>2014-01-13T14:21:32Z</time>
      </trkpt>
      <trkpt lat="47.99348" lon="-4.26046">
        <ele>122.22473144531</ele>
        <time>2014-01-13T14:21:41Z</time>
      </trkpt>
      <trkpt lat="47.99347" lon="-4.26053">
        <ele>121.26354980469</ele>
        <time>2014-01-13T14:21:45Z</time>
      </trkpt>
      <trkpt lat="47.99344" lon="-4.26066">
        <ele>122.70544433594</ele>
        <time>2014-01-13T14:21:52Z</time>
      </trkpt>
      <trkpt lat="47.99336" lon="-4.26086">
        <ele>124.62805175781</ele>
        <time>2014-01-13T14:22:02Z</time>
      </trkpt>
      <trkpt lat="47.99329" lon="-4.26104">
        <ele>124.62805175781</ele>
        <time>2014-01-13T14:22:12Z</time>
      </trkpt>
      <trkpt lat="47.99324" lon="-4.26116">
        <ele>124.14733886719</ele>
        <time>2014-01-13T14:22:19Z</time>
      </trkpt>
      <trkpt lat="47.9932" lon="-4.26126">
        <ele>123.66674804688</ele>
        <time>2014-01-13T14:22:24Z</time>
      </trkpt>
      <trkpt lat="47.99317" lon="-4.26133">
        <ele>123.66674804688</ele>
        <time>2014-01-13T14:22:28Z</time>
      </trkpt>
      <trkpt lat="47.99315" lon="-4.2614">
        <ele>123.66674804688</ele>
        <time>2014-01-13T14:22:32Z</time>
      </trkpt>
      <trkpt lat="47.99307" lon="-4.26158">
        <ele>123.66674804688</ele>
        <time>2014-01-13T14:22:42Z</time>
      </trkpt>
      <trkpt lat="47.99301" lon="-4.26174">
        <ele>124.62805175781</ele>
        <time>2014-01-13T14:22:51Z</time>
      </trkpt>
      <trkpt lat="47.99296" lon="-4.26186">
        <ele>123.66674804688</ele>
        <time>2014-01-13T14:22:58Z</time>
      </trkpt>
      <trkpt lat="47.9929" lon="-4.26199">
        <ele>124.62805175781</ele>
        <time>2014-01-13T14:23:06Z</time>
      </trkpt>
      <trkpt lat="47.99281" lon="-4.2622">
        <ele>123.66674804688</ele>
        <time>2014-01-13T14:23:18Z</time>
      </trkpt>
      <trkpt lat="47.99274" lon="-4.26238">
        <ele>122.70544433594</ele>
        <time>2014-01-13T14:23:28Z</time>
      </trkpt>
      <trkpt lat="47.99269" lon="-4.26252">
        <ele>122.22473144531</ele>
        <time>2014-01-13T14:23:35Z</time>
      </trkpt>
      <trkpt lat="47.9926" lon="-4.26272">
        <ele>122.70544433594</ele>
        <time>2014-01-13T14:23:46Z</time>
      </trkpt>
      <trkpt lat="47.99253" lon="-4.26288">
        <ele>123.18615722656</ele>
        <time>2014-01-13T14:23:55Z</time>
      </trkpt>
      <trkpt lat="47.99247" lon="-4.26302">
        <ele>123.66674804688</ele>
        <time>2014-01-13T14:24:03Z</time>
      </trkpt>
      <trkpt lat="47.9924" lon="-4.26321">
        <ele>124.14733886719</ele>
        <time>2014-01-13T14:24:13Z</time>
      </trkpt>
      <trkpt lat="47.99235" lon="-4.26334">
        <ele>123.66674804688</ele>
        <time>2014-01-13T14:24:21Z</time>
      </trkpt>
      <trkpt lat="47.99226" lon="-4.26358">
        <ele>121.744140625</ele>
        <time>2014-01-13T14:24:35Z</time>
      </trkpt>
      <trkpt lat="47.99217" lon="-4.26381">
        <ele>120.30212402344</ele>
        <time>2014-01-13T14:24:48Z</time>
      </trkpt>
      <trkpt lat="47.99213" lon="-4.26395">
        <ele>119.3408203125</ele>
        <time>2014-01-13T14:24:56Z</time>
      </trkpt>
      <trkpt lat="47.99211" lon="-4.26399">
        <ele>118.86010742188</ele>
        <time>2014-01-13T14:24:59Z</time>
      </trkpt>
      <trkpt lat="47.99207" lon="-4.26411">
        <ele>118.37939453125</ele>
        <time>2014-01-13T14:25:07Z</time>
      </trkpt>
      <trkpt lat="47.99203" lon="-4.26424">
        <ele>117.89880371094</ele>
        <time>2014-01-13T14:25:14Z</time>
      </trkpt>
      <trkpt lat="47.99196" lon="-4.2644">
        <ele>117.89880371094</ele>
        <time>2014-01-13T14:25:23Z</time>
      </trkpt>
      <trkpt lat="47.99196" lon="-4.26438">
        <ele>117.89880371094</ele>
        <time>2014-01-13T14:25:29Z</time>
      </trkpt>
      <trkpt lat="47.99192" lon="-4.26433">
        <ele>117.41821289062</ele>
        <time>2014-01-13T14:25:33Z</time>
      </trkpt>
      <trkpt lat="47.99185" lon="-4.26425">
        <ele>116.45678710938</ele>
        <time>2014-01-13T14:25:40Z</time>
      </trkpt>
      <trkpt lat="47.99188" lon="-4.26429">
        <ele>115.97619628906</ele>
        <time>2014-01-13T14:25:45Z</time>
      </trkpt>
      <trkpt lat="47.99191" lon="-4.26432">
        <ele>116.45678710938</ele>
        <time>2014-01-13T14:25:48Z</time>
      </trkpt>
      <trkpt lat="47.99195" lon="-4.26441">
        <ele>115.97619628906</ele>
        <time>2014-01-13T14:25:54Z</time>
      </trkpt>
      <trkpt lat="47.99194" lon="-4.26456">
        <ele>117.41821289062</ele>
        <time>2014-01-13T14:26:02Z</time>
      </trkpt>
      <trkpt lat="47.99188" lon="-4.26471">
        <ele>120.30212402344</ele>
        <time>2014-01-13T14:26:10Z</time>
      </trkpt>
      <trkpt lat="47.99185" lon="-4.26484">
        <ele>120.30212402344</ele>
        <time>2014-01-13T14:26:18Z</time>
      </trkpt>
      <trkpt lat="47.99182" lon="-4.26498">
        <ele>118.86010742188</ele>
        <time>2014-01-13T14:26:26Z</time>
      </trkpt>
      <trkpt lat="47.99178" lon="-4.26516">
        <ele>118.37939453125</ele>
        <time>2014-01-13T14:26:35Z</time>
      </trkpt>
      <trkpt lat="47.99172" lon="-4.26539">
        <ele>116.9375</ele>
        <time>2014-01-13T14:26:47Z</time>
      </trkpt>
      <trkpt lat="47.99169" lon="-4.26551">
        <ele>116.9375</ele>
        <time>2014-01-13T14:26:54Z</time>
      </trkpt>
      <trkpt lat="47.99162" lon="-4.26562">
        <ele>116.9375</ele>
        <time>2014-01-13T14:27:01Z</time>
      </trkpt>
      <trkpt lat="47.99159" lon="-4.26563">
        <ele>115.97619628906</ele>
        <time>2014-01-13T14:27:04Z</time>
      </trkpt>
      <trkpt lat="47.9915" lon="-4.26558">
        <ele>115.49560546875</ele>
        <time>2014-01-13T14:27:11Z</time>
      </trkpt>
      <trkpt lat="47.99142" lon="-4.26553">
        <ele>114.5341796875</ele>
        <time>2014-01-13T14:27:18Z</time>
      </trkpt>
      <trkpt lat="47.9913" lon="-4.26543">
        <ele>114.05358886719</ele>
        <time>2014-01-13T14:27:29Z</time>
      </trkpt>
      <trkpt lat="47.99119" lon="-4.26535">
        <ele>115.01489257812</ele>
        <time>2014-01-13T14:27:38Z</time>
      </trkpt>
      <trkpt lat="47.9911" lon="-4.26526">
        <ele>115.97619628906</ele>
        <time>2014-01-13T14:27:47Z</time>
      </trkpt>
      <trkpt lat="47.99102" lon="-4.26518">
        <ele>117.41821289062</ele>
        <time>2014-01-13T14:27:54Z</time>
      </trkpt>
      <trkpt lat="47.99095" lon="-4.26512">
        <ele>117.41821289062</ele>
        <time>2014-01-13T14:28:00Z</time>
      </trkpt>
      <trkpt lat="47.99087" lon="-4.26505">
        <ele>118.37939453125</ele>
        <time>2014-01-13T14:28:08Z</time>
      </trkpt>
      <trkpt lat="47.99078" lon="-4.26497">
        <ele>119.3408203125</ele>
        <time>2014-01-13T14:28:16Z</time>
      </trkpt>
      <trkpt lat="47.99072" lon="-4.26491">
        <ele>120.30212402344</ele>
        <time>2014-01-13T14:28:22Z</time>
      </trkpt>
      <trkpt lat="47.99065" lon="-4.26485">
        <ele>121.26354980469</ele>
        <time>2014-01-13T14:28:29Z</time>
      </trkpt>
      <trkpt lat="47.99058" lon="-4.2648">
        <ele>120.78283691406</ele>
        <time>2014-01-13T14:28:36Z</time>
      </trkpt>
      <trkpt lat="47.99051" lon="-4.26473">
        <ele>117.89880371094</ele>
        <time>2014-01-13T14:28:43Z</time>
      </trkpt>
      <trkpt lat="47.99043" lon="-4.26466">
        <ele>117.41821289062</ele>
        <time>2014-01-13T14:28:51Z</time>
      </trkpt>
      <trkpt lat="47.99039" lon="-4.26463">
        <ele>116.9375</ele>
        <time>2014-01-13T14:28:55Z</time>
      </trkpt>
      <trkpt lat="47.9903" lon="-4.26471">
        <ele>117.89880371094</ele>
        <time>2014-01-13T14:29:03Z</time>
      </trkpt>
      <trkpt lat="47.99023" lon="-4.2648">
        <ele>119.3408203125</ele>
        <time>2014-01-13T14:29:11Z</time>
      </trkpt>
      <trkpt lat="47.99016" lon="-4.2649">
        <ele>120.30212402344</ele>
        <time>2014-01-13T14:29:18Z</time>
      </trkpt>
      <trkpt lat="47.99008" lon="-4.26503">
        <ele>118.86010742188</ele>
        <time>2014-01-13T14:29:27Z</time>
      </trkpt>
      <trkpt lat="47.99005" lon="-4.26507">
        <ele>118.86010742188</ele>
        <time>2014-01-13T14:29:31Z</time>
      </trkpt>
      <trkpt lat="47.98996" lon="-4.26506">
        <ele>117.89880371094</ele>
        <time>2014-01-13T14:29:39Z</time>
      </trkpt>
      <trkpt lat="47.98987" lon="-4.2651">
        <ele>117.89880371094</ele>
        <time>2014-01-13T14:29:48Z</time>
      </trkpt>
      <trkpt lat="47.98985" lon="-4.26516">
        <ele>117.89880371094</ele>
        <time>2014-01-13T14:29:54Z</time>
      </trkpt>
      <trkpt lat="47.98978" lon="-4.26528">
        <ele>116.9375</ele>
        <time>2014-01-13T14:30:03Z</time>
      </trkpt>
      <trkpt lat="47.9897" lon="-4.26536">
        <ele>116.45678710938</ele>
        <time>2014-01-13T14:30:11Z</time>
      </trkpt>
      <trkpt lat="47.98969" lon="-4.26536">
        <ele>116.45678710938</ele>
        <time>2014-01-13T14:30:12Z</time>
      </trkpt>
      <trkpt lat="47.98968" lon="-4.26536">
        <ele>118.37939453125</ele>
        <time>2014-01-13T14:30:19Z</time>
      </trkpt>
      <trkpt lat="47.98972" lon="-4.26533">
        <ele>117.89880371094</ele>
        <time>2014-01-13T14:30:25Z</time>
      </trkpt>
      <trkpt lat="47.98977" lon="-4.26527">
        <ele>116.9375</ele>
        <time>2014-01-13T14:30:31Z</time>
      </trkpt>
      <trkpt lat="47.9898" lon="-4.26521">
        <ele>115.97619628906</ele>
        <time>2014-01-13T14:30:35Z</time>
      </trkpt>
      <trkpt lat="47.98986" lon="-4.26509">
        <ele>114.5341796875</ele>
        <time>2014-01-13T14:30:44Z</time>
      </trkpt>
      <trkpt lat="47.98992" lon="-4.26505">
        <ele>114.5341796875</ele>
        <time>2014-01-13T14:30:50Z</time>
      </trkpt>
      <trkpt lat="47.98994" lon="-4.26505">
        <ele>115.49560546875</ele>
        <time>2014-01-13T14:30:52Z</time>
      </trkpt>
      <trkpt lat="47.98999" lon="-4.26511">
        <ele>116.45678710938</ele>
        <time>2014-01-13T14:30:59Z</time>
      </trkpt>
      <trkpt lat="47.98997" lon="-4.26517">
        <ele>117.89880371094</ele>
        <time>2014-01-13T14:31:03Z</time>
      </trkpt>
      <trkpt lat="47.98989" lon="-4.26529">
        <ele>119.3408203125</ele>
        <time>2014-01-13T14:31:12Z</time>
      </trkpt>
      <trkpt lat="47.98986" lon="-4.26534">
        <ele>119.82141113281</ele>
        <time>2014-01-13T14:31:15Z</time>
      </trkpt>
      <trkpt lat="47.98983" lon="-4.26539">
        <ele>119.82141113281</ele>
        <time>2014-01-13T14:31:19Z</time>
      </trkpt>
      <trkpt lat="47.98981" lon="-4.26544">
        <ele>119.82141113281</ele>
        <time>2014-01-13T14:31:22Z</time>
      </trkpt>
      <trkpt lat="47.98978" lon="-4.26549">
        <ele>120.78283691406</ele>
        <time>2014-01-13T14:31:26Z</time>
      </trkpt>
      <trkpt lat="47.98974" lon="-4.26559">
        <ele>121.744140625</ele>
        <time>2014-01-13T14:31:32Z</time>
      </trkpt>
      <trkpt lat="47.98968" lon="-4.26571">
        <ele>122.22473144531</ele>
        <time>2014-01-13T14:31:40Z</time>
      </trkpt>
      <trkpt lat="47.98963" lon="-4.26582">
        <ele>123.18615722656</ele>
        <time>2014-01-13T14:31:47Z</time>
      </trkpt>
      <trkpt lat="47.98956" lon="-4.26594">
        <ele>123.18615722656</ele>
        <time>2014-01-13T14:31:55Z</time>
      </trkpt>
      <trkpt lat="47.98956" lon="-4.26595">
        <ele>123.66674804688</ele>
        <time>2014-01-13T14:31:56Z</time>
      </trkpt>
      <trkpt lat="47.98955" lon="-4.26601">
        <ele>122.70544433594</ele>
        <time>2014-01-13T14:32:02Z</time>
      </trkpt>
      <trkpt lat="47.98951" lon="-4.26604">
        <ele>121.26354980469</ele>
        <time>2014-01-13T14:32:07Z</time>
      </trkpt>
      <trkpt lat="47.98949" lon="-4.2661">
        <ele>119.82141113281</ele>
        <time>2014-01-13T14:32:11Z</time>
      </trkpt>
      <trkpt lat="47.98947" lon="-4.2662">
        <ele>119.82141113281</ele>
        <time>2014-01-13T14:32:18Z</time>
      </trkpt>
      <trkpt lat="47.98946" lon="-4.26633">
        <ele>117.89880371094</ele>
        <time>2014-01-13T14:32:25Z</time>
      </trkpt>
      <trkpt lat="47.98947" lon="-4.26642">
        <ele>117.41821289062</ele>
        <time>2014-01-13T14:32:30Z</time>
      </trkpt>
      <trkpt lat="47.98948" lon="-4.26651">
        <ele>118.86010742188</ele>
        <time>2014-01-13T14:32:36Z</time>
      </trkpt>
      <trkpt lat="47.9895" lon="-4.2666">
        <ele>118.37939453125</ele>
        <time>2014-01-13T14:32:42Z</time>
      </trkpt>
      <trkpt lat="47.9895" lon="-4.26666">
        <ele>116.9375</ele>
        <time>2014-01-13T14:32:44Z</time>
      </trkpt>
      <trkpt lat="47.98948" lon="-4.26681">
        <ele>115.97619628906</ele>
        <time>2014-01-13T14:32:51Z</time>
      </trkpt>
      <trkpt lat="47.98946" lon="-4.26696">
        <ele>114.05358886719</ele>
        <time>2014-01-13T14:32:59Z</time>
      </trkpt>
      <trkpt lat="47.98944" lon="-4.26707">
        <ele>110.20825195312</ele>
        <time>2014-01-13T14:33:05Z</time>
      </trkpt>
      <trkpt lat="47.98943" lon="-4.26717">
        <ele>110.68884277344</ele>
        <time>2014-01-13T14:33:10Z</time>
      </trkpt>
      <trkpt lat="47.9894" lon="-4.26729">
        <ele>111.16955566406</ele>
        <time>2014-01-13T14:33:16Z</time>
      </trkpt>
      <trkpt lat="47.9894" lon="-4.26731">
        <ele>111.16955566406</ele>
        <time>2014-01-13T14:33:17Z</time>
      </trkpt>
      <trkpt lat="47.98939" lon="-4.2674">
        <ele>111.16955566406</ele>
        <time>2014-01-13T14:33:22Z</time>
      </trkpt>
      <trkpt lat="47.98937" lon="-4.26752">
        <ele>110.20825195312</ele>
        <time>2014-01-13T14:33:28Z</time>
      </trkpt>
      <trkpt lat="47.98936" lon="-4.26763">
        <ele>111.16955566406</ele>
        <time>2014-01-13T14:33:33Z</time>
      </trkpt>
      <trkpt lat="47.98935" lon="-4.26774">
        <ele>113.09228515625</ele>
        <time>2014-01-13T14:33:38Z</time>
      </trkpt>
      <trkpt lat="47.98935" lon="-4.2678">
        <ele>114.05358886719</ele>
        <time>2014-01-13T14:33:41Z</time>
      </trkpt>
      <trkpt lat="47.98934" lon="-4.26787">
        <ele>113.57299804688</ele>
        <time>2014-01-13T14:33:45Z</time>
      </trkpt>
      <trkpt lat="47.98933" lon="-4.268">
        <ele>112.13098144531</ele>
        <time>2014-01-13T14:33:53Z</time>
      </trkpt>
      <trkpt lat="47.98933" lon="-4.26807">
        <ele>109.72766113281</ele>
        <time>2014-01-13T14:33:57Z</time>
      </trkpt>
      <trkpt lat="47.98933" lon="-4.26818">
        <ele>108.28564453125</ele>
        <time>2014-01-13T14:34:03Z</time>
      </trkpt>
      <trkpt lat="47.98932" lon="-4.26831">
        <ele>111.16955566406</ele>
        <time>2014-01-13T14:34:08Z</time>
      </trkpt>
      <trkpt lat="47.98932" lon="-4.26838">
        <ele>109.72766113281</ele>
        <time>2014-01-13T14:34:13Z</time>
      </trkpt>
      <trkpt lat="47.98932" lon="-4.26848">
        <ele>107.32434082031</ele>
        <time>2014-01-13T14:34:18Z</time>
      </trkpt>
      <trkpt lat="47.98931" lon="-4.26856">
        <ele>106.36303710938</ele>
        <time>2014-01-13T14:34:24Z</time>
      </trkpt>
      <trkpt lat="47.98931" lon="-4.2686">
        <ele>104.92102050781</ele>
        <time>2014-01-13T14:34:26Z</time>
      </trkpt>
      <trkpt lat="47.98932" lon="-4.26872">
        <ele>102.51770019531</ele>
        <time>2014-01-13T14:34:34Z</time>
      </trkpt>
      <trkpt lat="47.98931" lon="-4.26881">
        <ele>100.59509277344</ele>
        <time>2014-01-13T14:34:41Z</time>
      </trkpt>
      <trkpt lat="47.98931" lon="-4.26883">
        <ele>100.11450195312</ele>
        <time>2014-01-13T14:34:42Z</time>
      </trkpt>
      <trkpt lat="47.98933" lon="-4.26896">
        <ele>102.037109375</ele>
        <time>2014-01-13T14:34:48Z</time>
      </trkpt>
      <trkpt lat="47.98933" lon="-4.26902">
        <ele>102.51770019531</ele>
        <time>2014-01-13T14:34:51Z</time>
      </trkpt>
      <trkpt lat="47.98932" lon="-4.26912">
        <ele>101.07568359375</ele>
        <time>2014-01-13T14:34:57Z</time>
      </trkpt>
      <trkpt lat="47.98928" lon="-4.2692">
        <ele>99.153076171875</ele>
        <time>2014-01-13T14:35:04Z</time>
      </trkpt>
      <trkpt lat="47.98924" lon="-4.26921">
        <ele>98.672485351562</ele>
        <time>2014-01-13T14:35:08Z</time>
      </trkpt>
      <trkpt lat="47.98916" lon="-4.26918">
        <ele>96.749877929688</ele>
        <time>2014-01-13T14:35:15Z</time>
      </trkpt>
      <trkpt lat="47.98909" lon="-4.26919">
        <ele>100.11450195312</ele>
        <time>2014-01-13T14:35:21Z</time>
      </trkpt>
      <trkpt lat="47.98901" lon="-4.26918">
        <ele>99.6337890625</ele>
        <time>2014-01-13T14:35:27Z</time>
      </trkpt>
      <trkpt lat="47.98897" lon="-4.26916">
        <ele>100.11450195312</ele>
        <time>2014-01-13T14:35:31Z</time>
      </trkpt>
      <trkpt lat="47.98892" lon="-4.26913">
        <ele>101.07568359375</ele>
        <time>2014-01-13T14:35:35Z</time>
      </trkpt>
      <trkpt lat="47.98886" lon="-4.26912">
        <ele>100.11450195312</ele>
        <time>2014-01-13T14:35:39Z</time>
      </trkpt>
      <trkpt lat="47.98878" lon="-4.26908">
        <ele>100.59509277344</ele>
        <time>2014-01-13T14:35:45Z</time>
      </trkpt>
      <trkpt lat="47.98877" lon="-4.26908">
        <ele>100.11450195312</ele>
        <time>2014-01-13T14:35:46Z</time>
      </trkpt>
      <trkpt lat="47.98867" lon="-4.26904">
        <ele>100.59509277344</ele>
        <time>2014-01-13T14:35:55Z</time>
      </trkpt>
      <trkpt lat="47.98863" lon="-4.26901">
        <ele>101.07568359375</ele>
        <time>2014-01-13T14:35:59Z</time>
      </trkpt>
      <trkpt lat="47.98858" lon="-4.26901">
        <ele>99.153076171875</ele>
        <time>2014-01-13T14:36:03Z</time>
      </trkpt>
      <trkpt lat="47.98855" lon="-4.26901">
        <ele>97.23046875</ele>
        <time>2014-01-13T14:36:06Z</time>
      </trkpt>
      <trkpt lat="47.98847" lon="-4.26894">
        <ele>96.269287109375</ele>
        <time>2014-01-13T14:36:12Z</time>
      </trkpt>
      <trkpt lat="47.98839" lon="-4.26893">
        <ele>94.8271484375</ele>
        <time>2014-01-13T14:36:18Z</time>
      </trkpt>
      <trkpt lat="47.98835" lon="-4.26893">
        <ele>93.385131835938</ele>
        <time>2014-01-13T14:36:22Z</time>
      </trkpt>
      <trkpt lat="47.98828" lon="-4.26893">
        <ele>91.462524414062</ele>
        <time>2014-01-13T14:36:27Z</time>
      </trkpt>
      <trkpt lat="47.98821" lon="-4.26887">
        <ele>94.8271484375</ele>
        <time>2014-01-13T14:36:32Z</time>
      </trkpt>
      <trkpt lat="47.98818" lon="-4.26886">
        <ele>95.788452148438</ele>
        <time>2014-01-13T14:36:34Z</time>
      </trkpt>
      <trkpt lat="47.98808" lon="-4.26882">
        <ele>94.346557617188</ele>
        <time>2014-01-13T14:36:42Z</time>
      </trkpt>
      <trkpt lat="47.988" lon="-4.26876">
        <ele>93.385131835938</ele>
        <time>2014-01-13T14:36:49Z</time>
      </trkpt>
      <trkpt lat="47.98795" lon="-4.26874">
        <ele>93.865844726562</ele>
        <time>2014-01-13T14:36:58Z</time>
      </trkpt>
      <trkpt lat="47.98787" lon="-4.26875">
        <ele>93.385131835938</ele>
        <time>2014-01-13T14:37:05Z</time>
      </trkpt>
      <trkpt lat="47.98782" lon="-4.26873">
        <ele>93.385131835938</ele>
        <time>2014-01-13T14:37:10Z</time>
      </trkpt>
      <trkpt lat="47.98775" lon="-4.26869">
        <ele>92.904541015625</ele>
        <time>2014-01-13T14:37:15Z</time>
      </trkpt>
      <trkpt lat="47.98772" lon="-4.26865">
        <ele>92.904541015625</ele>
        <time>2014-01-13T14:37:19Z</time>
      </trkpt>
      <trkpt lat="47.98762" lon="-4.26858">
        <ele>91.943237304688</ele>
        <time>2014-01-13T14:37:27Z</time>
      </trkpt>
      <trkpt lat="47.98756" lon="-4.26857">
        <ele>91.943237304688</ele>
        <time>2014-01-13T14:37:32Z</time>
      </trkpt>
      <trkpt lat="47.98754" lon="-4.26855">
        <ele>91.462524414062</ele>
        <time>2014-01-13T14:37:34Z</time>
      </trkpt>
      <trkpt lat="47.9875" lon="-4.26853">
        <ele>91.462524414062</ele>
        <time>2014-01-13T14:37:37Z</time>
      </trkpt>
      <trkpt lat="47.98746" lon="-4.26849">
        <ele>92.423950195312</ele>
        <time>2014-01-13T14:37:44Z</time>
      </trkpt>
      <trkpt lat="47.98745" lon="-4.26845">
        <ele>95.307739257812</ele>
        <time>2014-01-13T14:37:49Z</time>
      </trkpt>
      <trkpt lat="47.98746" lon="-4.26843">
        <ele>96.749877929688</ele>
        <time>2014-01-13T14:37:53Z</time>
      </trkpt>
      <trkpt lat="47.98745" lon="-4.26841">
        <ele>100.59509277344</ele>
        <time>2014-01-13T14:38:00Z</time>
      </trkpt>
      <trkpt lat="47.98742" lon="-4.26835">
        <ele>98.19189453125</ele>
        <time>2014-01-13T14:38:07Z</time>
      </trkpt>
      <trkpt lat="47.98737" lon="-4.26834">
        <ele>95.788452148438</ele>
        <time>2014-01-13T14:38:14Z</time>
      </trkpt>
      <trkpt lat="47.98733" lon="-4.26836">
        <ele>95.307739257812</ele>
        <time>2014-01-13T14:38:19Z</time>
      </trkpt>
      <trkpt lat="47.98732" lon="-4.26837">
        <ele>96.749877929688</ele>
        <time>2014-01-13T14:38:24Z</time>
      </trkpt>
      <trkpt lat="47.98725" lon="-4.26838">
        <ele>92.904541015625</ele>
        <time>2014-01-13T14:38:30Z</time>
      </trkpt>
      <trkpt lat="47.98721" lon="-4.26839">
        <ele>90.020629882812</ele>
        <time>2014-01-13T14:38:35Z</time>
      </trkpt>
      <trkpt lat="47.98717" lon="-4.26842">
        <ele>89.059326171875</ele>
        <time>2014-01-13T14:38:39Z</time>
      </trkpt>
      <trkpt lat="47.98712" lon="-4.26847">
        <ele>88.578735351562</ele>
        <time>2014-01-13T14:38:44Z</time>
      </trkpt>
      <trkpt lat="47.98703" lon="-4.26857">
        <ele>88.578735351562</ele>
        <time>2014-01-13T14:38:54Z</time>
      </trkpt>
      <trkpt lat="47.98698" lon="-4.26864">
        <ele>88.578735351562</ele>
        <time>2014-01-13T14:39:00Z</time>
      </trkpt>
      <trkpt lat="47.98691" lon="-4.26875">
        <ele>87.6171875</ele>
        <time>2014-01-13T14:39:09Z</time>
      </trkpt>
      <trkpt lat="47.9869" lon="-4.26878">
        <ele>87.6171875</ele>
        <time>2014-01-13T14:39:10Z</time>
      </trkpt>
      <trkpt lat="47.9868" lon="-4.26888">
        <ele>87.6171875</ele>
        <time>2014-01-13T14:39:19Z</time>
      </trkpt>
      <trkpt lat="47.98677" lon="-4.26891">
        <ele>88.578735351562</ele>
        <time>2014-01-13T14:39:21Z</time>
      </trkpt>
      <trkpt lat="47.9867" lon="-4.26898">
        <ele>92.904541015625</ele>
        <time>2014-01-13T14:39:26Z</time>
      </trkpt>
      <trkpt lat="47.98664" lon="-4.26907">
        <ele>94.346557617188</ele>
        <time>2014-01-13T14:39:32Z</time>
      </trkpt>
      <trkpt lat="47.98663" lon="-4.26909">
        <ele>94.8271484375</ele>
        <time>2014-01-13T14:39:33Z</time>
      </trkpt>
      <trkpt lat="47.98656" lon="-4.26916">
        <ele>95.788452148438</ele>
        <time>2014-01-13T14:39:40Z</time>
      </trkpt>
      <trkpt lat="47.98655" lon="-4.26917">
        <ele>94.8271484375</ele>
        <time>2014-01-13T14:39:41Z</time>
      </trkpt>
      <trkpt lat="47.98651" lon="-4.2692">
        <ele>93.385131835938</ele>
        <time>2014-01-13T14:39:45Z</time>
      </trkpt>
      <trkpt lat="47.98646" lon="-4.26928">
        <ele>90.020629882812</ele>
        <time>2014-01-13T14:39:52Z</time>
      </trkpt>
      <trkpt lat="47.98644" lon="-4.26934">
        <ele>87.6171875</ele>
        <time>2014-01-13T14:39:56Z</time>
      </trkpt>
      <trkpt lat="47.98639" lon="-4.26944">
        <ele>86.656005859375</ele>
        <time>2014-01-13T14:40:01Z</time>
      </trkpt>
      <trkpt lat="47.98638" lon="-4.26948">
        <ele>86.656005859375</ele>
        <time>2014-01-13T14:40:03Z</time>
      </trkpt>
      <trkpt lat="47.98635" lon="-4.26952">
        <ele>87.6171875</ele>
        <time>2014-01-13T14:40:06Z</time>
      </trkpt>
      <trkpt lat="47.98628" lon="-4.2696">
        <ele>85.213989257812</ele>
        <time>2014-01-13T14:40:13Z</time>
      </trkpt>
      <trkpt lat="47.98625" lon="-4.26965">
        <ele>84.252685546875</ele>
        <time>2014-01-13T14:40:16Z</time>
      </trkpt>
      <trkpt lat="47.98619" lon="-4.26976">
        <ele>84.7333984375</ele>
        <time>2014-01-13T14:40:22Z</time>
      </trkpt>
      <trkpt lat="47.98617" lon="-4.26983">
        <ele>84.7333984375</ele>
        <time>2014-01-13T14:40:25Z</time>
      </trkpt>
      <trkpt lat="47.98617" lon="-4.26994">
        <ele>84.7333984375</ele>
        <time>2014-01-13T14:40:31Z</time>
      </trkpt>
      <trkpt lat="47.98615" lon="-4.26999">
        <ele>83.291381835938</ele>
        <time>2014-01-13T14:40:34Z</time>
      </trkpt>
      <trkpt lat="47.98613" lon="-4.27004">
        <ele>83.291381835938</ele>
        <time>2014-01-13T14:40:37Z</time>
      </trkpt>
      <trkpt lat="47.98608" lon="-4.27009">
        <ele>82.810791015625</ele>
        <time>2014-01-13T14:40:42Z</time>
      </trkpt>
      <trkpt lat="47.98602" lon="-4.27017">
        <ele>84.252685546875</ele>
        <time>2014-01-13T14:40:48Z</time>
      </trkpt>
      <trkpt lat="47.98596" lon="-4.27024">
        <ele>84.7333984375</ele>
        <time>2014-01-13T14:40:53Z</time>
      </trkpt>
      <trkpt lat="47.98595" lon="-4.27026">
        <ele>84.7333984375</ele>
        <time>2014-01-13T14:40:54Z</time>
      </trkpt>
      <trkpt lat="47.98588" lon="-4.2704">
        <ele>89.539916992188</ele>
        <time>2014-01-13T14:41:01Z</time>
      </trkpt>
      <trkpt lat="47.98587" lon="-4.27044">
        <ele>90.501342773438</ele>
        <time>2014-01-13T14:41:03Z</time>
      </trkpt>
      <trkpt lat="47.98586" lon="-4.27059">
        <ele>89.059326171875</ele>
        <time>2014-01-13T14:41:11Z</time>
      </trkpt>
      <trkpt lat="47.98584" lon="-4.27065">
        <ele>88.098022460938</ele>
        <time>2014-01-13T14:41:15Z</time>
      </trkpt>
      <trkpt lat="47.98582" lon="-4.27077">
        <ele>87.6171875</ele>
        <time>2014-01-13T14:41:22Z</time>
      </trkpt>
      <trkpt lat="47.98578" lon="-4.27088">
        <ele>86.656005859375</ele>
        <time>2014-01-13T14:41:29Z</time>
      </trkpt>
      <trkpt lat="47.98574" lon="-4.27099">
        <ele>84.7333984375</ele>
        <time>2014-01-13T14:41:35Z</time>
      </trkpt>
      <trkpt lat="47.98571" lon="-4.27105">
        <ele>86.17529296875</ele>
        <time>2014-01-13T14:41:39Z</time>
      </trkpt>
      <trkpt lat="47.98566" lon="-4.27115">
        <ele>87.136596679688</ele>
        <time>2014-01-13T14:41:45Z</time>
      </trkpt>
      <trkpt lat="47.9856" lon="-4.27125">
        <ele>85.213989257812</ele>
        <time>2014-01-13T14:41:53Z</time>
      </trkpt>
      <trkpt lat="47.98553" lon="-4.27132">
        <ele>84.252685546875</ele>
        <time>2014-01-13T14:42:01Z</time>
      </trkpt>
      <trkpt lat="47.98547" lon="-4.27141">
        <ele>82.330078125</ele>
        <time>2014-01-13T14:42:09Z</time>
      </trkpt>
      <trkpt lat="47.98544" lon="-4.27145">
        <ele>78.965454101562</ele>
        <time>2014-01-13T14:42:13Z</time>
      </trkpt>
      <trkpt lat="47.98539" lon="-4.27148">
        <ele>76.081420898438</ele>
        <time>2014-01-13T14:42:18Z</time>
      </trkpt>
      <trkpt lat="47.98531" lon="-4.2715">
        <ele>81.849365234375</ele>
        <time>2014-01-13T14:42:23Z</time>
      </trkpt>
      <trkpt lat="47.98527" lon="-4.2715">
        <ele>84.7333984375</ele>
        <time>2014-01-13T14:42:27Z</time>
      </trkpt>
      <trkpt lat="47.98521" lon="-4.27151">
        <ele>85.213989257812</ele>
        <time>2014-01-13T14:42:33Z</time>
      </trkpt>
      <trkpt lat="47.98515" lon="-4.27149">
        <ele>86.656005859375</ele>
        <time>2014-01-13T14:42:39Z</time>
      </trkpt>
      <trkpt lat="47.98508" lon="-4.27143">
        <ele>89.059326171875</ele>
        <time>2014-01-13T14:42:44Z</time>
      </trkpt>
      <trkpt lat="47.98498" lon="-4.27135">
        <ele>94.346557617188</ele>
        <time>2014-01-13T14:42:51Z</time>
      </trkpt>
      <trkpt lat="47.98492" lon="-4.27131">
        <ele>94.8271484375</ele>
        <time>2014-01-13T14:42:56Z</time>
      </trkpt>
      <trkpt lat="47.98483" lon="-4.27128">
        <ele>97.23046875</ele>
        <time>2014-01-13T14:43:03Z</time>
      </trkpt>
      <trkpt lat="47.98474" lon="-4.27126">
        <ele>99.6337890625</ele>
        <time>2014-01-13T14:43:10Z</time>
      </trkpt>
      <trkpt lat="47.98468" lon="-4.27125">
        <ele>98.19189453125</ele>
        <time>2014-01-13T14:43:16Z</time>
      </trkpt>
      <trkpt lat="47.98461" lon="-4.27128">
        <ele>97.23046875</ele>
        <time>2014-01-13T14:43:22Z</time>
      </trkpt>
      <trkpt lat="47.98459" lon="-4.27129">
        <ele>97.23046875</ele>
        <time>2014-01-13T14:43:24Z</time>
      </trkpt>
      <trkpt lat="47.98447" lon="-4.27119">
        <ele>100.11450195312</ele>
        <time>2014-01-13T14:43:31Z</time>
      </trkpt>
      <trkpt lat="47.9844" lon="-4.27113">
        <ele>99.153076171875</ele>
        <time>2014-01-13T14:43:37Z</time>
      </trkpt>
      <trkpt lat="47.98438" lon="-4.27112">
        <ele>99.6337890625</ele>
        <time>2014-01-13T14:43:39Z</time>
      </trkpt>
      <trkpt lat="47.98432" lon="-4.27109">
        <ele>101.07568359375</ele>
        <time>2014-01-13T14:43:43Z</time>
      </trkpt>
      <trkpt lat="47.98424" lon="-4.27106">
        <ele>101.07568359375</ele>
        <time>2014-01-13T14:43:49Z</time>
      </trkpt>
      <trkpt lat="47.98415" lon="-4.271">
        <ele>100.59509277344</ele>
        <time>2014-01-13T14:43:56Z</time>
      </trkpt>
      <trkpt lat="47.98411" lon="-4.27098">
        <ele>101.55639648438</ele>
        <time>2014-01-13T14:44:00Z</time>
      </trkpt>
      <trkpt lat="47.984" lon="-4.27092">
        <ele>103.47900390625</ele>
        <time>2014-01-13T14:44:07Z</time>
      </trkpt>
      <trkpt lat="47.98392" lon="-4.2709">
        <ele>103.95971679688</ele>
        <time>2014-01-13T14:44:13Z</time>
      </trkpt>
      <trkpt lat="47.98383" lon="-4.27088">
        <ele>104.92102050781</ele>
        <time>2014-01-13T14:44:20Z</time>
      </trkpt>
      <trkpt lat="47.98377" lon="-4.27083">
        <ele>104.92102050781</ele>
        <time>2014-01-13T14:44:25Z</time>
      </trkpt>
      <trkpt lat="47.98373" lon="-4.27077">
        <ele>105.40173339844</ele>
        <time>2014-01-13T14:44:29Z</time>
      </trkpt>
      <trkpt lat="47.98369" lon="-4.27071">
        <ele>106.36303710938</ele>
        <time>2014-01-13T14:44:34Z</time>
      </trkpt>
      <trkpt lat="47.98362" lon="-4.27065">
        <ele>107.32434082031</ele>
        <time>2014-01-13T14:44:40Z</time>
      </trkpt>
      <trkpt lat="47.98357" lon="-4.2706">
        <ele>108.28564453125</ele>
        <time>2014-01-13T14:44:44Z</time>
      </trkpt>
      <trkpt lat="47.98349" lon="-4.27057">
        <ele>105.88244628906</ele>
        <time>2014-01-13T14:44:50Z</time>
      </trkpt>
      <trkpt lat="47.98346" lon="-4.27053">
        <ele>104.92102050781</ele>
        <time>2014-01-13T14:44:53Z</time>
      </trkpt>
      <trkpt lat="47.9834" lon="-4.27051">
        <ele>102.99829101562</ele>
        <time>2014-01-13T14:44:58Z</time>
      </trkpt>
      <trkpt lat="47.98334" lon="-4.27047">
        <ele>105.40173339844</ele>
        <time>2014-01-13T14:45:03Z</time>
      </trkpt>
      <trkpt lat="47.98323" lon="-4.27041">
        <ele>106.36303710938</ele>
        <time>2014-01-13T14:45:11Z</time>
      </trkpt>
      <trkpt lat="47.98319" lon="-4.27043">
        <ele>104.92102050781</ele>
        <time>2014-01-13T14:45:14Z</time>
      </trkpt>
      <trkpt lat="47.98306" lon="-4.27048">
        <ele>105.40173339844</ele>
        <time>2014-01-13T14:45:22Z</time>
      </trkpt>
      <trkpt lat="47.98305" lon="-4.27048">
        <ele>104.92102050781</ele>
        <time>2014-01-13T14:45:23Z</time>
      </trkpt>
      <trkpt lat="47.983" lon="-4.27051">
        <ele>104.92102050781</ele>
        <time>2014-01-13T14:45:27Z</time>
      </trkpt>
      <trkpt lat="47.98298" lon="-4.27067">
        <ele>104.92102050781</ele>
        <time>2014-01-13T14:45:35Z</time>
      </trkpt>
      <trkpt lat="47.98298" lon="-4.27068">
        <ele>104.4404296875</ele>
        <time>2014-01-13T14:45:36Z</time>
      </trkpt>
      <trkpt lat="47.98295" lon="-4.27071">
        <ele>103.95971679688</ele>
        <time>2014-01-13T14:45:39Z</time>
      </trkpt>
    </trkseg>
  </trk>
</gpx>